FR1791 / EI-DHY 7700 Squawk Report (10th of December, 2019)

Aircraft B738 Reg No. EI-DHY Age 14 years old
Model 737 Jet engines 2 First flight 21-11-05
Registered 06-12-05 Rollout 14-11-05 Delivered 06-12-05
Construction No. 33824 Line No. 1826 Series 8AS
ADSHEX 4CA2AC Airline name Ryanair Owner N/A
Airfield based Dublin~Co Dublin~EI First tracked 2017-07-13 07:37:00

Flight history for EI-DHY

Route Flight No Date Playback
Santander (SDR) - Dublin (DUB) FR7153 2020-01-15 17:26:00
???? N/A 2020-01-15 14:41:00
Birmingham (BHX) - Dublin (DUB) FR663 2020-01-15 09:21:00
Dublin (DUB) - Birmingham (BHX) FR662 2020-01-15 08:21:00
Región de Murcia International (RMU) - Dublin (DUB) FR7095 2020-01-14 23:27:00
Dublin (DUB) - Región de Murcia International (RMU) FR7094 2020-01-14 20:13:00
Barajas (MAD) - Dublin (DUB) FR7257 2020-01-14 12:39:00
Stansted (STN) - Barajas (MAD) FR1133 2020-01-13 19:29:00
Barajas (MAD) - Stansted (STN) FR1132 2020-01-13 17:11:00
Brussels South Charleroi (CRL) - Barajas (MAD) FR5463 2020-01-13 10:43:00
Barajas (MAD) - Brussels South Charleroi (CRL) FR5462 2020-01-13 08:44:00
Stansted (STN) - Barajas (MAD) FR5998 2020-01-12 22:24:00
Barajas (MAD) - Stansted (STN) FR5997 2020-01-12 19:59:00
Fuerteventura (FUE) - Barajas (MAD) FR5469 2020-01-12 15:34:00
Barajas (MAD) - Fuerteventura (FUE) FR5468 2020-01-12 12:36:00
Ibiza (IBZ) - Barajas (MAD) FR5355 2020-01-12 10:15:00
Barajas (MAD) - Ibiza (IBZ) FR5354 2020-01-12 08:07:00
Koln Bonn (CGN) - Barajas (MAD) FR3016 2020-01-12 06:26:00
???? N/A 2020-01-11 18:38:00
Barajas (MAD) - Koln Bonn (CGN) FR3017 2020-01-11 18:24:00
Time Lat Lon Altitude Heading Speed Vertical Rate
2019-12-10 19:36:53 GMT 49.474041 2.067657 900 123 142 -768
2019-12-10 19:36:47 GMT 49.476185 2.062832 1,000 123 142 -768
2019-12-10 19:36:36 GMT 49.480042 2.054010 1,125 124 143 -832
2019-12-10 19:36:26 GMT 49.483913 2.045016 1,250 123 145 -768
2019-12-10 19:36:16 GMT 49.487732 2.036229 1,375 123 155 -896
2019-12-10 19:36:06 GMT 49.491779 2.026903 1,525 123 162 -960
2019-12-10 19:35:56 GMT 49.496017 2.016931 1,700 123 171 -1024
2019-12-10 19:35:45 GMT 49.500626 2.006193 1,875 122 178 -832
2019-12-10 19:35:35 GMT 49.505280 1.995206 2,025 124 178 -960
2019-12-10 19:35:25 GMT 49.510075 1.984443 2,200 123 180 -896
2019-12-10 19:35:15 GMT 49.514786 1.973564 2,375 123 181 -1024
2019-12-10 19:35:04 GMT 49.519592 1.962505 2,550 123 181 -1024
2019-12-10 19:34:54 GMT 49.524410 1.951484 2,675 124 178 -512
2019-12-10 19:34:44 GMT 49.529160 1.940605 2,725 124 178 -128
2019-12-10 19:34:36 GMT 49.532932 1.932109 2,750 123 181 -192
2019-12-10 19:34:33 GMT 49.533920 1.929835 2,750 123 181 -192
2019-12-10 19:34:23 GMT 49.538452 1.918632 2,825 120 193 -192
2019-12-10 19:34:13 GMT 49.542988 1.906648 2,825 120 197 -192
2019-12-10 19:34:05 GMT 49.546944 1.896552 2,850 125 202 128
2019-12-10 19:34:02 GMT 49.548615 1.892684 2,850 124 202 128
2019-12-10 19:33:55 GMT 49.552158 1.885417 2,850 129 202 -192
2019-12-10 19:33:52 GMT 49.553925 1.882131 2,850 130 201 -128
2019-12-10 19:33:46 GMT 49.558395 1.874579 2,875 134 198 -64
2019-12-10 19:33:42 GMT 49.560349 1.871536 2,875 135 197 -64
2019-12-10 19:33:35 GMT 49.565186 1.864279 2,875 137 196 0
2019-12-10 19:33:31 GMT 49.567795 1.860737 2,875 138 195 -64
2019-12-10 19:33:24 GMT 49.572235 1.854810 2,875 139 194 -64
2019-12-10 19:33:21 GMT 49.574249 1.852136 2,875 139 195 0
2019-12-10 19:33:15 GMT 49.578873 1.845992 2,900 139 195 -128
2019-12-10 19:33:11 GMT 49.581253 1.842884 2,900 139 195 -192
2019-12-10 19:33:04 GMT 49.588284 1.833603 2,950 139 195 -384
2019-12-10 19:32:54 GMT 49.592892 1.827442 3,000 138 196 -448
2019-12-10 19:32:51 GMT 49.595215 1.824309 3,025 138 196 -448
2019-12-10 19:32:42 GMT 49.601177 1.816382 3,100 138 199 -512
2019-12-10 19:32:39 GMT 49.603546 1.813178 3,125 138 199 -512
2019-12-10 19:32:34 GMT 49.606430 1.809275 3,150 138 201 -576
2019-12-10 19:32:30 GMT 49.609322 1.805469 3,200 138 204 -512
2019-12-10 19:32:24 GMT 49.613651 1.799605 3,250 138 209 -512
2019-12-10 19:32:19 GMT 49.617237 1.794780 3,275 138 211 -448
2019-12-10 19:32:15 GMT 49.621147 1.789510 3,325 138 216 -256
2019-12-10 19:32:10 GMT 49.624329 1.785134 3,325 139 222 -64
2019-12-10 19:32:00 GMT 49.632553 1.774144 4,425 307 245 -1856
2019-12-10 19:31:53 GMT 49.637238 1.766414 3,425 126 240 -704
2019-12-10 19:31:49 GMT 49.639584 1.760782 3,475 117 250 -704
2019-12-10 19:31:43 GMT 49.642281 1.750167 3,550 104 265 -768
2019-12-10 19:31:39 GMT 49.643143 1.742923 3,600 93 275 -768
2019-12-10 19:31:33 GMT 49.643074 1.730569 3,700 83 284 -832
2019-12-10 19:31:27 GMT 49.641357 1.718782 3,775 70 291 -896
2019-12-10 19:31:20 GMT 49.637054 1.705338 3,875 62 295 -1024
2019-12-10 19:31:11 GMT 49.628632 1.690738 3,975 42 299 -576
2019-12-10 19:31:04 GMT 49.620392 1.682281 4,075 24 296 -1024
2019-12-10 19:30:55 GMT 49.610069 1.676380 4,250 12 288 -1408
2019-12-10 19:30:48 GMT 49.600754 1.674548 4,425 7 285 -1408
2019-12-10 19:30:44 GMT 49.593960 1.675341 4,600 348 270 -1984
2019-12-10 19:30:33 GMT 49.581997 1.681279 4,950 330 258 -2112
2019-12-10 19:30:27 GMT 49.576813 1.686401 5,125 322 253 -2176
2019-12-10 19:30:21 GMT 49.571568 1.693899 5,350 314 248 -2112
2019-12-10 19:30:14 GMT 49.566681 1.703400 5,575 307 245 -1856
2019-12-10 19:30:11 GMT 49.564178 1.708519 5,700 307 245 -1856
2019-12-10 19:30:03 GMT 49.558868 1.719577 5,950 307 246 -2048
2019-12-10 19:29:56 GMT 49.554066 1.729530 6,200 307 248 -2048
2019-12-10 19:29:53 GMT 49.551830 1.734133 6,300 307 248 -2048
2019-12-10 19:29:46 GMT 49.547501 1.743115 6,525 307 248 -2112
2019-12-10 19:29:43 GMT 49.544987 1.748311 6,650 307 248 -2112
2019-12-10 19:29:33 GMT 49.537994 1.762655 7,075 307 250 -1920
2019-12-10 19:29:25 GMT 49.529572 1.779279 7,325 312 254 -2048
2019-12-10 19:29:21 GMT 49.529572 1.779279 7,375 311 253 -2048
2019-12-10 19:29:15 GMT 49.525158 1.785946 7,550 321 261 -2240
2019-12-10 19:29:12 GMT 49.520687 1.790920 7,725 327 265 -2240
2019-12-10 19:29:03 GMT 49.511703 1.797378 7,950 346 282 -1984
2019-12-10 19:29:00 GMT 49.507324 1.799228 8,125 349 285 -1856
2019-12-10 19:28:54 GMT 49.499599 1.800867 8,400 1 298 -1856
2019-12-10 19:28:51 GMT 49.495132 1.800941 8,400 3 300 -1792
2019-12-10 19:28:48 GMT 49.491440 1.800674 8,475 5 303 -1664
2019-12-10 19:28:42 GMT 49.482933 1.799382 8,625 6 305 -1152
2019-12-10 19:28:39 GMT 49.479443 1.798789 8,650 5 307 -960
2019-12-10 19:28:34 GMT 49.472168 1.797710 8,750 5 311 -1216
2019-12-10 19:28:30 GMT 49.464615 1.796626 8,875 4 313 -1792
2019-12-10 19:28:22 GMT 49.454132 1.795253 9,075 4 316 -1536
2019-12-10 19:28:19 GMT 49.439129 1.793370 9,475 4 321 -1216
2019-12-10 19:28:12 GMT 49.439129 1.793370 9,350 4 323 -1280
2019-12-10 19:28:08 GMT 49.434658 1.792776 9,475 4 325 -1280
2019-12-10 19:28:02 GMT 49.424557 1.791783 9,500 0 327 -1472
2019-12-10 19:27:58 GMT 49.418198 1.791898 9,675 356 326 0
2019-12-10 19:27:51 GMT 49.407753 1.794313 9,825 347 324 -1600
2019-12-10 19:27:48 GMT 49.403515 1.796192 9,875 341 323 -1536
2019-12-10 19:27:41 GMT 49.394672 1.801541 10,050 336 324 -1600
2019-12-10 19:27:36 GMT 49.386433 1.807251 10,225 336 328 -1728
2019-12-10 19:27:32 GMT 49.374516 1.815491 10,450 336 334 -1728
2019-12-10 19:27:27 GMT 49.374516 1.815491 10,450 336 334 -1728
2019-12-10 19:27:23 GMT 49.367523 1.820420 10,600 336 338 -1792
2019-12-10 19:27:18 GMT 49.361664 1.824526 10,750 336 342 -1856
2019-12-10 19:27:15 GMT 49.358082 1.827055 10,750 336 342 -1856
2019-12-10 19:27:10 GMT 49.351044 1.831970 10,975 336 346 -2112
2019-12-10 19:27:05 GMT 49.341522 1.838731 11,125 336 348 -2560
2019-12-10 19:27:01 GMT 49.336945 1.841900 11,425 336 348 -3328
2019-12-10 19:26:58 GMT 49.333878 1.844083 11,550 336 346 -3776
2019-12-10 19:26:55 GMT 49.329636 1.847076 11,800 336 342 -4864
2019-12-10 19:26:52 GMT 49.325134 1.850281 12,325 336 337 -4480
2019-12-10 19:26:49 GMT 49.314331 1.857887 12,325 336 336 -4160
2019-12-10 19:26:46 GMT 49.314331 1.857887 12,625 336 336 -3968
2019-12-10 19:26:43 GMT 49.311527 1.859942 12,950 336 336 -3200
2019-12-10 19:26:40 GMT 49.307430 1.862833 17,375 336 337 -2880
2019-12-10 19:26:35 GMT 49.300461 1.867676 13,000 336 340 -1088
2019-12-10 19:26:32 GMT 49.296021 1.870774 13,050 336 342 -1152
2019-12-10 19:26:29 GMT 49.292255 1.873458 13,100 336 343 -1152
2019-12-10 19:26:23 GMT 49.281643 1.880903 13,250 336 347 -1216
2019-12-10 19:26:20 GMT 49.276749 1.884296 13,325 336 349 -1216
2019-12-10 19:26:16 GMT 49.271255 1.888170 13,400 336 351 -1216
2019-12-10 19:26:12 GMT 49.266418 1.891528 13,425 336 352 -1152
2019-12-10 19:26:09 GMT 49.262554 1.894274 13,475 336 354 -1088
2019-12-10 19:26:05 GMT 49.256645 1.898466 13,625 336 358 -1088
2019-12-10 19:26:02 GMT 49.252075 1.901691 13,625 336 359 -1088
2019-12-10 19:25:59 GMT 49.246681 1.905550 13,800 335 362 -1088
2019-12-10 19:25:55 GMT 49.240356 1.910072 13,775 335 365 -1088
2019-12-10 19:25:52 GMT 49.235367 1.913663 13,825 335 366 -1088
2019-12-10 19:25:49 GMT 49.229462 1.917959 13,900 335 370 -1088
2019-12-10 19:25:44 GMT 49.217972 1.926340 13,975 335 372 -1152
2019-12-10 19:25:40 GMT 49.217972 1.926340 14,000 335 374 -1088
2019-12-10 19:25:37 GMT 49.211582 1.931064 14,075 335 377 -1088
2019-12-10 19:25:34 GMT 49.208416 1.933377 14,150 335 381 -1024
2019-12-10 19:25:31 GMT 49.203827 1.936763 14,225 334 393 -1856
2019-12-10 19:25:28 GMT 49.198746 1.940495 14,250 335 385 -1024
2019-12-10 19:25:24 GMT 49.191330 1.945953 14,325 335 390 -1088
2019-12-10 19:25:20 GMT 49.185883 1.949932 14,400 334 393 -1856
2019-12-10 19:25:17 GMT 49.180710 1.953806 14,475 334 393 -1856
2019-12-10 19:25:13 GMT 49.175594 1.957662 14,550 334 393 -2304
2019-12-10 19:25:10 GMT 49.171219 1.960987 14,700 334 393 -3008
2019-12-10 19:25:07 GMT 49.164734 1.965848 15,025 334 394 -3456
2019-12-10 19:25:04 GMT 49.160294 1.969299 15,075 334 394 -3456
2019-12-10 19:25:01 GMT 49.153976 1.974088 15,300 334 397 -3456
2019-12-10 19:24:57 GMT 49.149059 1.977828 15,525 334 401 -3456
2019-12-10 19:24:54 GMT 49.143707 1.981948 15,650 334 399 -3456
2019-12-10 19:24:51 GMT 49.139660 1.985056 15,800 334 400 -3456
2019-12-10 19:24:48 GMT 49.134724 1.988815 15,975 334 401 -3456
2019-12-10 19:24:45 GMT 49.127838 1.994019 16,225 334 404 -3520
2019-12-10 19:24:39 GMT 49.119644 2.000357 16,575 334 406 -3776
2019-12-10 19:24:36 GMT 49.114613 2.004210 17,375 334 406 -3840
2019-12-10 19:24:33 GMT 49.109119 2.008474 17,050 333 406 -3904
2019-12-10 19:24:30 GMT 49.103485 2.012893 17,050 333 406 -3968
2019-12-10 19:24:27 GMT 49.097527 2.017509 17,450 333 409 -3968
2019-12-10 19:24:24 GMT 49.093460 2.020710 17,550 333 409 -3840
2019-12-10 19:24:18 GMT 49.082199 2.029583 17,975 333 411 -3776
2019-12-10 19:24:15 GMT 49.073181 2.036626 18,575 334 413 -3840
2019-12-10 19:24:12 GMT 49.073181 2.036626 18,575 334 413 -3840
2019-12-10 19:24:09 GMT 49.069038 2.039843 18,575 334 413 -3840
2019-12-10 19:24:06 GMT 49.061737 2.045499 18,575 334 413 -3840
2019-12-10 19:24:03 GMT 49.058395 2.048035 18,875 334 416 -3712
2019-12-10 19:24:00 GMT 49.053490 2.051841 19,100 334 416 -3712
2019-12-10 19:23:57 GMT 49.045807 2.057768 19,325 334 418 -3776
2019-12-10 19:23:54 GMT 49.040726 2.061768 19,500 333 433 -4160
2019-12-10 19:23:51 GMT 49.038254 2.063599 19,650 334 423 -3648
2019-12-10 19:23:48 GMT 49.031570 2.068810 19,775 333 422 -3584
2019-12-10 19:23:44 GMT 49.024155 2.074585 20,075 333 424 -3712
2019-12-10 19:23:41 GMT 49.019787 2.077934 20,300 333 426 -3520
2019-12-10 19:23:38 GMT 49.016052 2.080853 22,950 333 437 -4160
2019-12-10 19:23:35 GMT 49.007950 2.087121 20,700 333 432 -3328
2019-12-10 19:23:29 GMT 48.997860 2.094992 21,025 333 433 -4160
2019-12-10 19:23:26 GMT 48.993202 2.098606 21,125 333 434 -4352
2019-12-10 19:23:23 GMT 48.986938 2.103459 21,375 333 434 -4352
2019-12-10 19:23:19 GMT 48.981812 2.107474 21,600 333 436 -4352
2019-12-10 19:23:16 GMT 48.967739 2.118482 22,025 333 437 -4224
2019-12-10 19:23:12 GMT 48.967739 2.118482 22,150 333 437 -4160
2019-12-10 19:23:08 GMT 48.953636 2.129541 22,600 333 438 -4416
2019-12-10 19:23:02 GMT 48.947983 2.133953 22,975 333 437 -5248
2019-12-10 19:22:59 GMT 48.939018 2.140888 23,250 333 436 -5504
2019-12-10 19:22:56 GMT 48.934223 2.144647 23,875 333 435 -5248
2019-12-10 19:22:53 GMT 48.934223 2.144647 24,050 333 435 -5184
2019-12-10 19:22:50 GMT 48.920677 2.155200 24,050 333 434 -5184
2019-12-10 19:22:46 GMT 48.920677 2.155200 24,325 333 434 -4992
2019-12-10 19:22:43 GMT 48.916214 2.158673 24,475 334 434 -4864
2019-12-10 19:22:40 GMT 48.908386 2.164729 24,875 334 434 -4864
2019-12-10 19:22:37 GMT 48.899231 2.171772 25,325 334 430 -5568
2019-12-10 19:22:34 GMT 48.899231 2.171772 25,325 334 430 -5568
2019-12-10 19:22:28 GMT 48.889767 2.179051 25,725 334 429 -5312
2019-12-10 19:22:25 GMT 48.878906 2.187477 26,150 333 428 -4992
2019-12-10 19:22:22 GMT 48.878906 2.187477 26,325 333 428 -4736
2019-12-10 19:22:19 GMT 48.872223 2.192688 26,675 333 427 -4608
2019-12-10 19:22:16 GMT 48.867783 2.196139 26,850 333 425 -5056
2019-12-10 19:22:13 GMT 48.863323 2.199651 27,050 333 424 -5632
2019-12-10 19:22:10 GMT 48.858017 2.203843 31,275 333 412 -6144
2019-12-10 19:22:07 GMT 48.851578 2.208956 28,150 333 413 -6144
2019-12-10 19:22:04 GMT 48.849171 2.210854 28,200 333 413 -6144
2019-12-10 19:22:01 GMT 48.835579 2.221623 28,950 333 412 -6144
2019-12-10 19:21:57 GMT 48.829971 2.225999 28,900 333 406 -6208
2019-12-10 19:21:54 GMT 48.829971 2.225999 29,225 333 403 -6208
2019-12-10 19:21:51 GMT 48.826447 2.228816 29,450 333 402 -6144
2019-12-10 19:21:48 GMT 48.820404 2.233535 29,950 334 392 -5440
2019-12-10 19:21:44 GMT 48.814724 2.237958 29,950 333 396 -5824
2019-12-10 19:21:40 GMT 48.808113 2.243090 30,500 334 392 -5184
2019-12-10 19:21:36 GMT 48.800491 2.248887 30,825 334 391 -4032
2019-12-10 19:21:32 GMT 48.794495 2.253465 30,975 334 392 -2752
2019-12-10 19:21:29 GMT 48.790607 2.256389 31,350 334 400 -1024
2019-12-10 19:21:26 GMT 48.786209 2.259662 31,125 334 395 -1152
2019-12-10 19:21:23 GMT 48.781174 2.263536 31,175 334 398 -1088
2019-12-10 19:21:20 GMT 48.775063 2.268099 31,275 334 405 -1024
2019-12-10 19:21:17 GMT 48.770462 2.271564 31,300 334 402 -1024
2019-12-10 19:21:14 GMT 48.760117 2.279452 31,400 334 405 -1024
2019-12-10 19:21:11 GMT 48.760117 2.279452 31,450 334 406 -1088
2019-12-10 19:21:08 GMT 48.754856 2.283422 31,975 340 411 -3584
2019-12-10 19:21:05 GMT 48.750248 2.286819 31,500 335 410 -1536
2019-12-10 19:21:02 GMT 48.745499 2.290216 31,650 336 411 -2240
2019-12-10 19:20:59 GMT 48.740295 2.293748 31,725 338 411 -2816
2019-12-10 19:20:56 GMT 48.729263 2.300509 31,975 340 411 -3584
2019-12-10 19:20:53 GMT 48.729263 2.300509 32,150 341 410 -3584
2019-12-10 19:20:47 GMT 48.719711 2.305539 32,875 344 408 -3712
2019-12-10 19:20:44 GMT 48.712357 2.309008 32,650 345 409 -3712
2019-12-10 19:20:41 GMT 48.706581 2.311466 32,750 345 408 -3712
2019-12-10 19:20:38 GMT 48.697456 2.314863 33,125 350 406 -3712
2019-12-10 19:20:32 GMT 48.691040 2.316848 33,500 351 405 -3712
2019-12-10 19:20:29 GMT 48.686371 2.318186 33,500 351 405 -3648
2019-12-10 19:20:25 GMT 48.676987 2.320369 33,850 353 406 -2432
2019-12-10 19:20:21 GMT 48.670460 2.321585 33,875 354 406 -1920
2019-12-10 19:20:18 GMT 48.665543 2.322341 33,950 355 406 -1344
2019-12-10 19:20:15 GMT 48.659939 2.323102 34,000 358 408 0
2019-12-10 19:20:12 GMT 48.646408 2.324031 34,000 359 409 0
2019-12-10 19:20:09 GMT 48.646408 2.324031 34,000 0 410 0
2019-12-10 19:20:06 GMT 48.643341 2.324101 34,000 1 410 0
2019-12-10 19:20:03 GMT 48.636616 2.324042 34,000 3 411 0
2019-12-10 19:19:59 GMT 48.628693 2.323538 34,000 2 411 0
2019-12-10 19:19:56 GMT 48.616642 2.322163 34,000 11 415 0
2019-12-10 19:19:52 GMT 48.616642 2.322163 34,000 7 413 0
2019-12-10 19:19:49 GMT 48.610703 2.321073 34,000 9 414 0
2019-12-10 19:19:46 GMT 48.604935 2.319876 34,000 9 413 0
2019-12-10 19:19:42 GMT 48.597061 2.317904 34,000 10 414 0
2019-12-10 19:19:39 GMT 48.586395 2.314524 34,000 15 417 0
2019-12-10 19:19:36 GMT 48.580307 2.312270 34,000 14 416 0
2019-12-10 19:19:33 GMT 48.580307 2.312270 34,000 15 417 0
2019-12-10 19:19:29 GMT 48.573444 2.309442 34,000 16 418 0
2019-12-10 19:19:26 GMT 48.567398 2.306706 34,000 17 419 0
2019-12-10 19:19:23 GMT 48.556499 2.301130 34,000 19 420 0
2019-12-10 19:19:20 GMT 48.556499 2.301130 34,000 21 421 0
2019-12-10 19:19:17 GMT 48.550678 2.297805 34,000 22 422 0
2019-12-10 19:19:13 GMT 48.543697 2.293468 34,000 23 423 0
2019-12-10 19:19:10 GMT 48.538330 2.289875 34,000 25 424 0
2019-12-10 19:19:07 GMT 48.530685 2.284382 34,000 26 425 0
2019-12-10 19:19:04 GMT 48.519699 2.275578 34,000 28 425 0
2019-12-10 19:19:00 GMT 48.519699 2.275578 34,000 30 427 0
2019-12-10 19:18:57 GMT 48.515167 2.271705 34,000 30 427 0
2019-12-10 19:18:54 GMT 48.504959 2.262127 34,000 32 429 0
2019-12-10 19:18:51 GMT 48.499741 2.256845 34,000 34 430 0
2019-12-10 19:18:45 GMT 48.495758 2.252690 34,000 36 431 64
2019-12-10 19:18:42 GMT 48.491463 2.247933 34,000 36 431 64
2019-12-10 19:18:39 GMT 48.485878 2.241500 34,000 38 432 0
2019-12-10 19:18:36 GMT 48.476616 2.230080 34,000 40 434 0
2019-12-10 19:18:30 GMT 48.471355 2.223069 34,000 42 435 64
2019-12-10 19:18:27 GMT 48.461792 2.209449 34,000 44 437 0
2019-12-10 19:18:24 GMT 48.461792 2.209449 34,000 46 438 -64
2019-12-10 19:18:21 GMT 48.457581 2.203040 34,000 62 449 0
2019-12-10 19:18:18 GMT 48.451447 2.193111 34,000 48 439 -64
2019-12-10 19:18:15 GMT 48.451447 2.193111 34,000 49 440 0
2019-12-10 19:18:12 GMT 48.446819 2.185123 34,000 50 440 0
2019-12-10 19:18:09 GMT 48.442959 2.178184 34,000 52 441 64
2019-12-10 19:18:05 GMT 48.432808 2.158235 34,000 55 443 0
2019-12-10 19:17:59 GMT 48.425858 2.143109 34,000 55 444 0
2019-12-10 19:17:55 GMT 48.425858 2.143109 34,000 58 445 0
2019-12-10 19:17:52 GMT 48.421234 2.132193 34,000 62 448 0
2019-12-10 19:17:49 GMT 48.419262 2.127228 34,000 59 446 0
2019-12-10 19:17:45 GMT 48.415924 2.118601 34,000 60 446 0
2019-12-10 19:17:42 GMT 48.411942 2.107755 34,000 62 447 0
2019-12-10 19:17:39 GMT 48.409241 2.099938 34,000 62 448 0
2019-12-10 19:17:35 GMT 48.405109 2.087981 34,000 62 448 0
2019-12-10 19:17:32 GMT 48.399151 2.070706 34,000 62 448 0
2019-12-10 19:17:29 GMT 48.399151 2.070706 34,000 62 448 0
2019-12-10 19:17:25 GMT 48.396698 2.063599 34,000 62 449 -64
2019-12-10 19:17:22 GMT 48.393219 2.053457 34,000 62 449 0
2019-12-10 19:17:19 GMT 48.387840 2.037964 34,000 62 449 -64
2019-12-10 19:17:13 GMT 48.381184 2.018810 34,000 62 449 -64
2019-12-10 19:17:09 GMT 48.381184 2.018810 34,000 62 449 -64
2019-12-10 19:17:06 GMT 48.378342 2.010498 34,000 62 449 0
2019-12-10 19:17:02 GMT 48.374451 1.999300 34,000 62 449 0
2019-12-10 19:16:58 GMT 48.369125 1.984044 34,000 62 449 -64
2019-12-10 19:16:54 GMT 48.363556 1.968102 34,000 62 449 -64
2019-12-10 19:16:48 GMT 48.356598 1.948031 34,000 62 449 64
2019-12-10 19:16:45 GMT 48.356598 1.948031 34,000 62 449 64
2019-12-10 19:16:42 GMT 48.354973 1.943424 34,000 62 450 64
2019-12-10 19:16:39 GMT 48.352020 1.934861 34,000 62 451 64
2019-12-10 19:16:35 GMT 48.348724 1.925354 34,000 62 451 0
2019-12-10 19:16:32 GMT 48.342823 1.908441 34,000 62 451 0
2019-12-10 19:16:29 GMT 48.339752 1.899649 34,000 62 452 0
2019-12-10 19:16:23 GMT 48.336678 1.890949 34,000 62 452 0
2019-12-10 19:16:20 GMT 48.333794 1.882637 34,000 62 452 0
2019-12-10 19:16:17 GMT 48.330719 1.873819 34,000 62 452 0
2019-12-10 19:16:14 GMT 48.327621 1.864929 34,000 62 452 64
2019-12-10 19:16:11 GMT 48.324528 1.856111 34,000 62 452 0
2019-12-10 19:16:08 GMT 48.318104 1.837680 34,000 62 452 64
2019-12-10 19:16:04 GMT 48.318104 1.837680 34,000 62 452 64
2019-12-10 19:16:01 GMT 48.315308 1.829717 34,000 62 452 0
2019-12-10 19:15:58 GMT 48.312103 1.820632 34,000 52 449 0
2019-12-10 19:15:55 GMT 48.309219 1.812322 34,000 62 453 -64
2019-12-10 19:15:51 GMT 48.304733 1.799434 34,000 62 453 0
2019-12-10 19:15:47 GMT 48.301895 1.791264 34,000 62 453 0
2019-12-10 19:15:44 GMT 48.299252 1.783616 34,000 62 453 0
2019-12-10 19:15:41 GMT 48.296131 1.774653 34,000 62 453 0
2019-12-10 19:15:38 GMT 48.293152 1.766052 34,000 33 437 64
2019-12-10 19:15:35 GMT 48.286308 1.746031 34,000 63 453 0
2019-12-10 19:15:32 GMT 48.286308 1.746031 34,000 63 453 0
2019-12-10 19:15:29 GMT 48.284363 1.740277 34,000 63 453 0
2019-12-10 19:15:26 GMT 48.281937 1.733164 34,000 62 453 0
2019-12-10 19:15:23 GMT 48.278908 1.724420 34,000 59 452 64
2019-12-10 19:15:19 GMT 48.273785 1.711265 34,000 42 443 0
2019-12-10 19:15:16 GMT 48.271729 1.706332 34,000 57 451 64
2019-12-10 19:15:13 GMT 48.266850 1.695508 34,000 53 450 0
2019-12-10 19:15:09 GMT 48.261589 1.684956 34,000 50 448 0
2019-12-10 19:15:02 GMT 48.252232 1.668549 34,000 42 443 0
2019-12-10 19:14:58 GMT 48.246552 1.659710 34,000 43 444 -64
2019-12-10 19:14:52 GMT 48.238827 1.649033 34,000 40 442 0
2019-12-10 19:14:48 GMT 48.232178 1.640766 34,000 36 439 0
2019-12-10 19:14:41 GMT 48.221191 1.629075 34,000 31 436 0
2019-12-10 19:14:38 GMT 48.215698 1.623934 34,000 30 435 0
2019-12-10 19:14:35 GMT 48.211594 1.620339 34,000 30 436 0
2019-12-10 19:14:31 GMT 48.203842 1.613511 34,000 30 435 0
2019-12-10 19:14:28 GMT 48.198212 1.608582 34,000 30 435 0
2019-12-10 19:14:25 GMT 48.193771 1.604708 34,000 30 435 0
2019-12-10 19:14:21 GMT 48.186630 1.598440 34,000 30 434 0
2019-12-10 19:14:18 GMT 48.181149 1.593596 34,000 30 434 0
2019-12-10 19:14:15 GMT 48.176399 1.589476 34,000 30 435 -64
2019-12-10 19:14:12 GMT 48.171185 1.584850 34,000 30 434 0
2019-12-10 19:14:09 GMT 48.164574 1.579140 34,000 30 434 0
2019-12-10 19:14:06 GMT 48.153397 1.569328 34,000 30 435 64
2019-12-10 19:14:02 GMT 48.147766 1.564384 34,000 30 435 0
2019-12-10 19:13:59 GMT 48.147766 1.564384 34,000 30 434 0
2019-12-10 19:13:56 GMT 48.142742 1.559988 34,000 30 434 0
2019-12-10 19:13:51 GMT 48.133804 1.552101 34,000 30 435 0
2019-12-10 19:13:46 GMT 48.125145 1.544565 34,000 30 435 0
2019-12-10 19:13:43 GMT 48.118908 1.539142 34,000 30 435 0
2019-12-10 19:13:39 GMT 48.111923 1.533015 34,000 30 435 0
2019-12-10 19:13:36 GMT 48.107407 1.529072 34,000 30 435 0
2019-12-10 19:13:31 GMT 48.094345 1.517693 34,000 30 435 0
2019-12-10 19:13:28 GMT 48.094345 1.517693 34,000 30 435 0
2019-12-10 19:13:25 GMT 48.088974 1.513015 34,000 30 435 0
2019-12-10 19:13:21 GMT 48.083359 1.508148 34,000 30 435 0
2019-12-10 19:13:18 GMT 48.076401 1.502037 34,000 30 435 64
2019-12-10 19:13:15 GMT 48.071190 1.497521 34,000 30 435 64
2019-12-10 19:13:11 GMT 48.065781 1.492767 34,000 30 435 0
2019-12-10 19:13:08 GMT 48.059601 1.487380 34,000 30 435 0
2019-12-10 19:13:05 GMT 48.048889 1.478004 34,000 30 435 0
2019-12-10 19:13:02 GMT 48.048889 1.478004 34,000 30 435 0
2019-12-10 19:12:58 GMT 48.040558 1.470759 34,000 30 435 0
2019-12-10 19:12:54 GMT 48.035160 1.466041 34,000 30 435 0
2019-12-10 19:12:50 GMT 48.028473 1.460152 34,000 30 435 0
2019-12-10 19:12:47 GMT 48.022842 1.455276 34,000 30 435 0
2019-12-10 19:12:44 GMT 48.017853 1.450951 34,000 30 435 0
2019-12-10 19:12:40 GMT 48.010757 1.444771 34,000 30 435 -64
2019-12-10 19:12:37 GMT 48.003754 1.438728 34,000 30 435 0
2019-12-10 19:12:34 GMT 48.000916 1.436256 34,000 30 434 64
2019-12-10 19:12:31 GMT 47.996334 1.432307 34,000 30 435 0
2019-12-10 19:12:27 GMT 47.986885 1.424068 34,000 30 435 0
2019-12-10 19:12:24 GMT 47.979034 1.417236 34,000 30 434 64
2019-12-10 19:12:18 GMT 47.971428 1.410616 34,000 30 434 64
2019-12-10 19:12:15 GMT 47.961372 1.401813 34,000 30 435 0
2019-12-10 19:12:12 GMT 47.961372 1.401813 34,000 30 435 0
2019-12-10 19:12:06 GMT 47.950974 1.392792 34,000 30 435 0
2019-12-10 19:12:03 GMT 47.940613 1.383784 34,000 30 435 0
2019-12-10 19:11:59 GMT 47.940613 1.383784 34,000 30 435 0
2019-12-10 19:11:55 GMT 47.930790 1.375263 34,000 30 435 -64
2019-12-10 19:11:49 GMT 47.920406 1.366178 34,000 30 436 0
2019-12-10 19:11:45 GMT 47.915520 1.361953 34,000 30 435 0
2019-12-10 19:11:42 GMT 47.905151 1.352966 34,000 30 435 0
2019-12-10 19:11:39 GMT 47.905151 1.352966 34,000 30 435 0
2019-12-10 19:11:36 GMT 47.894623 1.343903 34,000 30 435 0
2019-12-10 19:11:33 GMT 47.894623 1.343903 34,000 30 435 0
2019-12-10 19:11:30 GMT 47.890182 1.340057 34,000 30 435 0
2019-12-10 19:11:26 GMT 47.882492 1.333397 34,000 30 435 0
2019-12-10 19:11:23 GMT 47.876183 1.327937 34,000 30 435 64
2019-12-10 19:11:19 GMT 47.870132 1.322726 34,000 30 435 0
2019-12-10 19:11:15 GMT 47.862579 1.316231 34,000 30 436 0
2019-12-10 19:11:12 GMT 47.858215 1.312444 34,000 30 436 0
2019-12-10 19:11:09 GMT 47.853058 1.307922 34,000 30 437 0
2019-12-10 19:11:06 GMT 47.847927 1.303500 34,000 30 436 0
2019-12-10 19:11:03 GMT 47.840805 1.297373 34,000 30 437 0
2019-12-10 19:11:00 GMT 47.837173 1.294204 34,000 30 436 0
2019-12-10 19:10:57 GMT 47.830750 1.288710 34,000 30 436 0
2019-12-10 19:10:54 GMT 47.821346 1.280611 34,000 30 436 0
2019-12-10 19:10:48 GMT 47.815479 1.275611 34,000 30 436 0
2019-12-10 19:10:45 GMT 47.809891 1.270775 34,000 30 436 0
2019-12-10 19:10:42 GMT 47.806503 1.267822 34,000 30 436 0
2019-12-10 19:10:39 GMT 47.799545 1.261848 34,000 30 436 0
2019-12-10 19:10:35 GMT 47.794205 1.257301 34,000 30 436 0
2019-12-10 19:10:32 GMT 47.789040 1.252864 34,000 30 436 -64
2019-12-10 19:10:29 GMT 47.782608 1.247292 34,000 30 436 0
2019-12-10 19:10:26 GMT 47.771164 1.237473 34,000 30 436 0
2019-12-10 19:10:20 GMT 47.767776 1.234589 34,000 30 436 0
2019-12-10 19:10:17 GMT 47.762966 1.230469 34,000 30 436 0
2019-12-10 19:10:14 GMT 47.756927 1.225250 34,000 30 436 0
2019-12-10 19:10:07 GMT 47.744156 1.214264 34,000 30 436 0
2019-12-10 19:10:04 GMT 47.732475 1.204271 34,000 30 436 0
2019-12-10 19:10:00 GMT 47.732475 1.204271 34,000 30 436 0
2019-12-10 19:09:56 GMT 47.724884 1.197716 34,000 30 436 0
2019-12-10 19:09:53 GMT 47.719574 1.193184 34,000 30 435 0
2019-12-10 19:09:48 GMT 47.711472 1.186249 34,000 30 436 0
2019-12-10 19:09:45 GMT 47.704544 1.180256 34,000 30 436 0
2019-12-10 19:09:42 GMT 47.700897 1.177185 34,000 30 435 0
2019-12-10 19:09:38 GMT 47.694351 1.171593 34,000 30 435 0
2019-12-10 19:09:35 GMT 47.689636 1.167503 34,000 30 435 0
2019-12-10 19:09:32 GMT 47.678421 1.157890 34,000 30 435 0
2019-12-10 19:09:29 GMT 47.678421 1.157890 34,000 30 435 0
2019-12-10 19:09:23 GMT 47.666061 1.147316 34,000 30 435 0
2019-12-10 19:09:20 GMT 47.663673 1.145254 34,000 30 435 0
2019-12-10 19:09:17 GMT 47.657341 1.139832 34,000 30 435 0
2019-12-10 19:09:13 GMT 47.650681 1.134132 34,000 30 435 0
2019-12-10 19:09:09 GMT 47.641792 1.126521 34,000 30 435 0
2019-12-10 19:09:05 GMT 47.635986 1.121567 34,000 30 435 0
2019-12-10 19:09:01 GMT 47.622391 1.109894 34,000 30 435 0
2019-12-10 19:08:57 GMT 47.622391 1.109894 34,000 30 435 0
2019-12-10 19:08:53 GMT 47.615768 1.104267 34,000 29 434 0
2019-12-10 19:08:50 GMT 47.605247 1.095323 34,000 29 434 0
2019-12-10 19:08:47 GMT 47.605247 1.095323 34,000 29 434 0
2019-12-10 19:08:44 GMT 47.600876 1.091629 34,000 29 434 0
2019-12-10 19:08:41 GMT 47.594147 1.085861 34,000 29 434 0
2019-12-10 19:08:36 GMT 47.586861 1.079618 34,000 29 434 0
2019-12-10 19:08:33 GMT 47.580715 1.074407 34,000 29 434 0
2019-12-10 19:08:30 GMT 47.574852 1.069406 34,000 29 434 0
2019-12-10 19:08:27 GMT 47.568707 1.064195 34,000 29 434 0
2019-12-10 19:08:24 GMT 47.564514 1.060674 34,000 29 434 0
2019-12-10 19:08:20 GMT 47.558395 1.055374 34,000 29 434 0
2019-12-10 19:08:16 GMT 47.550659 1.048782 34,000 29 434 0
2019-12-10 19:08:13 GMT 47.545570 1.044476 34,000 30 434 0
2019-12-10 19:08:10 GMT 47.540310 1.039969 34,000 30 434 0
2019-12-10 19:08:06 GMT 47.526672 1.028320 34,000 30 433 -64
2019-12-10 19:08:03 GMT 47.526672 1.028320 34,000 29 434 0
2019-12-10 19:07:56 GMT 47.516647 1.019737 34,000 30 434 0
2019-12-10 19:07:53 GMT 47.504326 1.009263 34,000 30 434 0
2019-12-10 19:07:50 GMT 47.504326 1.009263 34,000 30 434 0
2019-12-10 19:07:45 GMT 47.497898 1.003700 34,000 30 433 0
2019-12-10 19:07:42 GMT 47.492935 0.999481 34,000 30 433 0
2019-12-10 19:07:39 GMT 47.486820 0.994263 34,000 30 433 -64
2019-12-10 19:07:36 GMT 47.481373 0.989615 34,000 29 432 0
2019-12-10 19:07:33 GMT 47.476593 0.985542 34,000 30 433 0
2019-12-10 19:07:29 GMT 47.469318 0.979333 34,000 30 433 0
2019-12-10 19:07:26 GMT 47.462311 0.973389 34,000 29 432 0
2019-12-10 19:07:22 GMT 47.453156 0.965630 34,000 30 431 0
2019-12-10 19:07:16 GMT 47.446178 0.959684 34,000 30 431 0
2019-12-10 19:07:11 GMT 47.438267 0.952923 34,000 30 431 0
2019-12-10 19:07:07 GMT 47.429375 0.945388 34,000 29 431 0
2019-12-10 19:07:03 GMT 47.424088 0.940910 34,000 29 431 0
2019-12-10 19:07:00 GMT 47.420242 0.937614 34,000 29 431 0
2019-12-10 19:06:56 GMT 47.412369 0.930954 34,000 29 431 0
2019-12-10 19:06:53 GMT 47.407654 0.926903 34,000 29 431 0
2019-12-10 19:06:50 GMT 47.403305 0.923264 34,000 29 431 0
2019-12-10 19:06:46 GMT 47.390305 0.912209 34,000 29 431 0
2019-12-10 19:06:40 GMT 47.385151 0.907851 34,000 29 431 0
2019-12-10 19:06:37 GMT 47.380096 0.903625 34,000 29 431 0
2019-12-10 19:06:34 GMT 47.374466 0.898819 34,000 29 431 0
2019-12-10 19:06:30 GMT 47.367599 0.892991 34,000 29 431 0
2019-12-10 19:06:26 GMT 47.355148 0.882477 34,000 29 430 -64
2019-12-10 19:06:23 GMT 47.355148 0.882477 34,000 29 430 -64
2019-12-10 19:06:20 GMT 47.350525 0.878563 34,000 29 430 0
2019-12-10 19:06:15 GMT 47.341717 0.871159 34,000 29 430 0
2019-12-10 19:06:12 GMT 47.336563 0.866753 34,000 29 430 -64
2019-12-10 19:06:09 GMT 47.331848 0.862779 34,000 29 430 -64
2019-12-10 19:06:05 GMT 47.319077 0.851990 34,000 29 430 -64
2019-12-10 19:06:02 GMT 47.319077 0.851990 34,000 29 430 -64
2019-12-10 19:05:59 GMT 47.314682 0.848282 34,025 29 425 64
2019-12-10 19:05:55 GMT 47.308044 0.842720 34,025 29 428 0
2019-12-10 19:05:52 GMT 47.302425 0.837989 34,025 29 426 64
2019-12-10 19:05:48 GMT 47.294037 0.830978 34,025 29 424 64
2019-12-10 19:05:44 GMT 47.289021 0.826792 34,000 29 423 0
2019-12-10 19:05:41 GMT 47.283829 0.822464 34,000 29 423 0
2019-12-10 19:05:38 GMT 47.271702 0.812354 34,000 29 416 0
2019-12-10 19:05:34 GMT 47.271702 0.812354 34,000 29 417 64
2019-12-10 19:05:31 GMT 47.266251 0.807838 34,000 29 417 64
2019-12-10 19:05:27 GMT 47.258621 0.801439 34,000 29 416 0
2019-12-10 19:05:24 GMT 47.254440 0.797951 34,000 29 416 0
2019-12-10 19:05:21 GMT 47.249405 0.793762 34,000 29 416 0
2019-12-10 19:05:18 GMT 47.245239 0.790329 34,000 29 416 0
2019-12-10 19:05:15 GMT 47.240559 0.786438 34,000 29 416 0
2019-12-10 19:05:12 GMT 47.233063 0.780100 34,000 29 416 0
2019-12-10 19:05:08 GMT 47.228500 0.776367 34,000 29 416 0
2019-12-10 19:05:05 GMT 47.223038 0.771790 34,000 29 416 0
2019-12-10 19:05:01 GMT 47.211411 0.762039 34,000 29 417 0
2019-12-10 19:04:58 GMT 47.211411 0.762039 34,000 29 416 0
2019-12-10 19:04:55 GMT 47.206100 0.757576 34,000 29 416 0
2019-12-10 19:04:51 GMT 47.194244 0.747551 34,000 30 415 0
2019-12-10 19:04:43 GMT 47.185768 0.740380 34,000 30 415 0
2019-12-10 19:04:40 GMT 47.177307 0.733131 34,000 29 414 0
2019-12-10 19:04:33 GMT 47.169662 0.726883 34,000 28 413 0
2019-12-10 19:04:30 GMT 47.164627 0.723106 34,000 25 410 0
2019-12-10 19:04:27 GMT 47.159931 0.719886 34,000 23 409 0
2019-12-10 19:04:23 GMT 47.152039 0.714935 34,000 20 406 0
2019-12-10 19:04:20 GMT 47.146774 0.711914 34,000 18 405 0
2019-12-10 19:04:17 GMT 47.142380 0.709648 34,000 17 404 0
2019-12-10 19:04:13 GMT 47.134644 0.706009 34,000 14 401 0
2019-12-10 19:04:10 GMT 47.127483 0.703195 34,000 13 401 0
2019-12-10 19:04:07 GMT 47.123886 0.701958 34,000 11 400 0
2019-12-10 19:04:03 GMT 47.117523 0.700035 34,000 9 399 0
2019-12-10 19:04:00 GMT 47.104568 0.697426 34,000 4 393 -64
2019-12-10 19:03:56 GMT 47.096008 0.696465 34,000 4 393 -64
2019-12-10 19:03:52 GMT 47.090607 0.695847 34,000 4 394 -64
2019-12-10 19:03:46 GMT 47.086029 0.695229 34,000 9 397 0
2019-12-10 19:03:43 GMT 47.080837 0.694322 34,000 7 396 0
2019-12-10 19:03:40 GMT 47.074631 0.693031 34,000 9 397 0
2019-12-10 19:03:36 GMT 47.068317 0.691434 34,000 12 399 0
2019-12-10 19:03:33 GMT 47.059982 0.688980 34,000 12 400 0
2019-12-10 19:03:29 GMT 47.053116 0.686577 34,000 14 400 0
2019-12-10 19:03:26 GMT 47.049683 0.685272 34,000 15 402 0
2019-12-10 19:03:22 GMT 47.042679 0.682320 34,000 17 402 0
2019-12-10 19:03:19 GMT 47.038467 0.680328 34,000 18 403 0
2019-12-10 19:03:16 GMT 47.031677 0.676927 34,000 20 404 0
2019-12-10 19:03:13 GMT 47.024696 0.673053 34,000 22 406 0
2019-12-10 19:03:10 GMT 47.020412 0.670448 34,000 23 406 0
2019-12-10 19:03:07 GMT 47.011459 0.664536 34,000 27 410 0
2019-12-10 19:03:04 GMT 47.004593 0.659454 34,000 27 410 64
2019-12-10 19:03:01 GMT 47.004593 0.659454 34,000 27 409 0
2019-12-10 19:02:58 GMT 47.000198 0.656158 34,000 27 410 0
2019-12-10 19:02:54 GMT 46.986832 0.645996 34,000 27 410 0
2019-12-10 19:02:50 GMT 46.986832 0.645996 34,000 27 410 0
2019-12-10 19:02:47 GMT 46.982613 0.642841 34,000 27 410 0
2019-12-10 19:02:43 GMT 46.976048 0.637841 34,000 27 410 0
2019-12-10 19:02:39 GMT 46.968925 0.632418 34,000 27 410 0
2019-12-10 19:02:34 GMT 46.960327 0.625946 34,000 27 410 64
2019-12-10 19:02:30 GMT 46.954308 0.621361 34,000 27 411 64
2019-12-10 19:02:27 GMT 46.948257 0.616854 34,000 27 411 0
2019-12-10 19:02:23 GMT 46.943275 0.613051 34,000 27 411 0
2019-12-10 19:02:20 GMT 46.937302 0.608574 34,000 27 411 0
2019-12-10 19:02:17 GMT 46.931591 0.604318 34,000 27 411 0
2019-12-10 19:02:14 GMT 46.918606 0.594529 34,000 27 412 0
2019-12-10 19:02:09 GMT 46.918606 0.594529 34,000 27 412 0
2019-12-10 19:02:06 GMT 46.913040 0.590378 34,000 27 412 0
2019-12-10 19:02:03 GMT 46.908966 0.587357 34,000 27 412 0
2019-12-10 19:01:59 GMT 46.901054 0.581430 34,000 27 412 0
2019-12-10 19:01:53 GMT 46.892029 0.574654 34,000 27 413 0
2019-12-10 19:01:49 GMT 46.884529 0.569035 34,000 27 413 -448
2019-12-10 19:01:46 GMT 46.878338 0.564387 34,050 27 415 -960
2019-12-10 19:01:42 GMT 46.873444 0.560715 34,100 27 415 -1024
2019-12-10 19:01:38 GMT 46.866165 0.555278 34,175 27 415 -1024
2019-12-10 19:01:35 GMT 46.860214 0.550790 34,225 27 415 -1024
2019-12-10 19:01:31 GMT 46.853432 0.545746 34,300 27 415 -1024
2019-12-10 19:01:23 GMT 46.839706 0.535517 34,400 27 416 -1024
2019-12-10 19:01:18 GMT 46.831459 0.529335 34,500 27 417 -1024
2019-12-10 19:01:15 GMT 46.825455 0.524872 34,575 27 417 -1024
2019-12-10 19:01:11 GMT 46.814606 0.516838 34,675 26 418 -1024
2019-12-10 19:01:08 GMT 46.809082 0.512673 34,725 26 418 -1024
2019-12-10 19:01:02 GMT 46.804550 0.509354 34,975 26 418 -1024
2019-12-10 19:00:59 GMT 46.798325 0.504701 34,875 26 418 -1024
2019-12-10 19:00:53 GMT 46.782906 0.493286 34,975 26 419 -1024
2019-12-10 19:00:50 GMT 46.782906 0.493286 35,200 26 419 -1024
2019-12-10 19:00:46 GMT 46.776245 0.488342 35,175 26 419 -1024
2019-12-10 19:00:42 GMT 46.769485 0.483398 35,150 26 419 -1024
2019-12-10 19:00:38 GMT 46.756741 0.473923 35,250 26 420 -1024
2019-12-10 19:00:35 GMT 46.752182 0.470536 35,300 26 420 -1024
2019-12-10 19:00:28 GMT 46.744545 0.464928 35,375 26 420 -1024
2019-12-10 19:00:23 GMT 46.736526 0.458947 35,450 26 420 -1024
2019-12-10 19:00:20 GMT 46.730858 0.454765 35,500 27 422 -1024
2019-12-10 19:00:17 GMT 46.720459 0.447023 35,575 27 422 -1024
2019-12-10 19:00:14 GMT 46.715927 0.443673 35,650 27 422 -1024
2019-12-10 19:00:08 GMT 46.709492 0.438835 35,725 27 422 -1024
2019-12-10 19:00:04 GMT 46.703064 0.434094 35,775 27 423 -1024
2019-12-10 19:00:00 GMT 46.695831 0.428668 35,850 27 423 -1024
2019-12-10 18:59:54 GMT 46.685329 0.420845 35,950 27 423 -1024
2019-12-10 18:59:48 GMT 46.675461 0.413361 36,050 27 423 -960
2019-12-10 18:59:45 GMT 46.670200 0.409378 36,075 27 424 -960
2019-12-10 18:59:41 GMT 46.658516 0.400520 36,175 27 423 -960
2019-12-10 18:59:38 GMT 46.658516 0.400520 36,250 27 423 -960
2019-12-10 18:59:35 GMT 46.653118 0.396400 36,250 27 424 -960
2019-12-10 18:59:32 GMT 46.648178 0.392627 36,350 28 423 -960
2019-12-10 18:59:28 GMT 46.640625 0.386799 36,400 28 423 -960
2019-12-10 18:59:25 GMT 46.635658 0.383011 36,425 28 423 -960
2019-12-10 18:59:21 GMT 46.630280 0.378827 36,500 28 422 -960
2019-12-10 18:59:18 GMT 46.622726 0.372999 36,525 28 422 -960
2019-12-10 18:59:15 GMT 46.617691 0.369072 36,600 28 421 -960
2019-12-10 18:59:12 GMT 46.613251 0.365630 36,650 28 421 -960
2019-12-10 18:59:08 GMT 46.605194 0.359400 36,725 27 420 -1024
2019-12-10 18:59:04 GMT 46.599953 0.355408 36,775 27 420 -1024
2019-12-10 18:59:01 GMT 46.594368 0.351151 36,875 27 419 -1024
2019-12-10 18:58:58 GMT 46.589760 0.347717 36,875 27 419 -1024
2019-12-10 18:58:55 GMT 46.585243 0.344353 36,900 27 419 -1024
2019-12-10 18:58:52 GMT 46.578445 0.339272 36,975 27 419 -1024
2019-12-10 18:58:49 GMT 46.572327 0.334681 37,025 27 421 -1024
2019-12-10 18:58:43 GMT 46.557907 0.323829 37,150 27 422 -1088
2019-12-10 18:58:40 GMT 46.557907 0.323829 37,175 27 422 -1088
2019-12-10 18:58:37 GMT 46.553055 0.320211 37,250 27 423 -1152
2019-12-10 18:58:34 GMT 46.547115 0.315788 37,300 27 424 -1152
2019-12-10 18:58:31 GMT 46.542648 0.312424 37,350 27 425 -1152
2019-12-10 18:58:28 GMT 46.537247 0.308441 37,375 27 426 -1152
2019-12-10 18:58:25 GMT 46.531895 0.304390 37,450 27 427 -1216
2019-12-10 18:58:19 GMT 46.517883 0.293953 37,575 27 429 -1216
2019-12-10 18:58:16 GMT 46.511719 0.289396 37,650 27 429 -1216
2019-12-10 18:58:13 GMT 46.511719 0.289396 37,775 27 432 -1152
2019-12-10 18:58:10 GMT 46.506058 0.285164 37,750 27 431 -1216
2019-12-10 18:58:07 GMT 46.501465 0.281759 37,800 27 432 -1216
2019-12-10 18:58:04 GMT 46.487949 0.271706 37,925 27 435 -896
2019-12-10 18:57:58 GMT 46.484829 0.269371 37,950 27 436 -640
2019-12-10 18:57:55 GMT 46.479080 0.265079 38,000 27 436 -384
2019-12-10 18:57:51 GMT 46.471935 0.259758 38,000 27 436 -64
2019-12-10 18:57:47 GMT 46.460342 0.251106 38,000 27 436 0
2019-12-10 18:57:41 GMT 46.453583 0.246121 38,000 27 436 0
2019-12-10 18:57:38 GMT 46.447403 0.241498 38,000 27 436 0
2019-12-10 18:57:34 GMT 46.442047 0.237546 38,000 27 436 0
2019-12-10 18:57:30 GMT 46.433350 0.231115 38,000 27 436 0
2019-12-10 18:57:24 GMT 46.418747 0.220262 38,000 27 435 0
2019-12-10 18:57:21 GMT 46.411697 0.215104 38,000 27 435 0
2019-12-10 18:57:17 GMT 46.411697 0.215104 38,000 27 435 0
2019-12-10 18:57:14 GMT 46.406204 0.211006 38,000 27 435 0
2019-12-10 18:57:11 GMT 46.399639 0.206200 38,000 27 435 0
2019-12-10 18:57:08 GMT 46.395172 0.202912 38,000 27 435 0
2019-12-10 18:57:05 GMT 46.387985 0.197620 38,000 27 435 0
2019-12-10 18:56:59 GMT 46.378281 0.190452 38,000 27 435 0
2019-12-10 18:56:56 GMT 46.372684 0.186287 38,000 27 435 0
2019-12-10 18:56:52 GMT 46.363907 0.179801 38,000 27 434 0
2019-12-10 18:56:49 GMT 46.362213 0.178596 38,000 27 434 0
2019-12-10 18:56:44 GMT 46.352188 0.171159 38,000 27 434 0
2019-12-10 18:56:41 GMT 46.345642 0.166336 38,000 27 434 0
2019-12-10 18:56:38 GMT 46.341309 0.163147 38,000 27 434 0
2019-12-10 18:56:34 GMT 46.334381 0.158029 38,000 27 434 0
2019-12-10 18:56:30 GMT 46.327065 0.152641 38,000 26 434 0
2019-12-10 18:56:26 GMT 46.320034 0.147491 38,000 26 434 0
2019-12-10 18:56:18 GMT 46.297459 0.130875 38,000 26 434 0
2019-12-10 18:56:13 GMT 46.297459 0.130875 38,000 26 434 0
2019-12-10 18:56:09 GMT 46.290054 0.125450 38,000 27 433 0
2019-12-10 18:56:06 GMT 46.283863 0.120918 38,000 27 433 0
2019-12-10 18:56:03 GMT 46.279629 0.117760 38,000 27 433 0
2019-12-10 18:55:57 GMT 46.267570 0.108902 38,000 27 433 0
2019-12-10 18:55:53 GMT 46.260170 0.103409 38,000 27 433 0
2019-12-10 18:55:49 GMT 46.254318 0.099145 38,000 27 433 0
2019-12-10 18:55:43 GMT 46.243652 0.091240 38,000 27 432 0
2019-12-10 18:55:39 GMT 46.224838 0.077373 38,000 27 432 0
2019-12-10 18:55:33 GMT 46.224838 0.077373 38,000 26 432 0
2019-12-10 18:55:29 GMT 46.218273 0.072578 38,000 26 432 0
2019-12-10 18:55:26 GMT 46.207214 0.064444 38,000 27 431 0
2019-12-10 18:55:23 GMT 46.207214 0.064444 38,000 27 431 0
2019-12-10 18:55:18 GMT 46.198997 0.058434 38,000 27 431 0
2019-12-10 18:55:15 GMT 46.193344 0.054262 38,000 27 431 0
2019-12-10 18:55:12 GMT 46.189087 0.051113 38,000 27 431 0
2019-12-10 18:55:08 GMT 46.176514 0.041817 38,000 27 431 0
2019-12-10 18:55:05 GMT 46.170822 0.037648 38,000 27 431 0
2019-12-10 18:55:02 GMT 46.170822 0.037648 38,000 27 431 0
2019-12-10 18:54:59 GMT 46.164597 0.033093 38,000 27 431 0
2019-12-10 18:54:56 GMT 46.158371 0.028538 38,000 26 430 0
2019-12-10 18:54:52 GMT 46.152237 0.024049 38,000 26 430 0
2019-12-10 18:54:49 GMT 46.148396 0.021217 38,000 26 430 0
2019-12-10 18:54:46 GMT 46.142944 0.017216 38,000 26 430 0
2019-12-10 18:54:43 GMT 46.135178 0.011604 38,000 26 430 0
2019-12-10 18:54:38 GMT 46.126377 0.005150 38,000 26 430 0
2019-12-10 18:54:32 GMT 46.117493 -0.001340 38,000 26 430 0
2019-12-10 18:54:27 GMT 46.108017 -0.008307 38,000 26 430 0
2019-12-10 18:54:22 GMT 46.099052 -0.014832 38,000 26 429 0
2019-12-10 18:54:17 GMT 46.084900 -0.025188 38,000 26 429 0
2019-12-10 18:54:14 GMT 46.080551 -0.028337 38,000 26 429 0
2019-12-10 18:54:06 GMT 46.071854 -0.034701 38,000 26 428 0
2019-12-10 18:54:02 GMT 46.063671 -0.040718 38,000 26 429 0
2019-12-10 18:53:56 GMT 46.052902 -0.048568 38,000 26 429 0
2019-12-10 18:53:51 GMT 46.045330 -0.054108 38,000 26 429 0
2019-12-10 18:53:48 GMT 46.039032 -0.058683 38,000 26 428 0
2019-12-10 18:53:45 GMT 46.033859 -0.062501 38,000 26 429 0
2019-12-10 18:53:42 GMT 46.027550 -0.067017 38,000 26 429 0
2019-12-10 18:53:35 GMT 46.016376 -0.075188 38,000 26 429 0
2019-12-10 18:53:32 GMT 46.005157 -0.083335 38,000 26 429 0
2019-12-10 18:53:29 GMT 45.999569 -0.087410 38,000 26 428 0
2019-12-10 18:53:25 GMT 45.999569 -0.087410 38,000 26 428 0
2019-12-10 18:53:21 GMT 45.991653 -0.093183 38,000 26 428 0
2019-12-10 18:53:15 GMT 45.981079 -0.100820 38,000 26 428 0
2019-12-10 18:53:12 GMT 45.975586 -0.104839 38,000 26 428 0
2019-12-10 18:53:09 GMT 45.970055 -0.108833 38,000 26 428 0
2019-12-10 18:53:05 GMT 45.954849 -0.119912 38,000 26 428 0
2019-12-10 18:53:01 GMT 45.954849 -0.119912 38,000 26 428 0
2019-12-10 18:52:58 GMT 45.951096 -0.122658 38,000 26 428 0
2019-12-10 18:52:55 GMT 45.945148 -0.126961 38,000 26 428 0
2019-12-10 18:52:52 GMT 45.941334 -0.129707 38,000 26 428 0
2019-12-10 18:52:49 GMT 45.934769 -0.134514 38,000 26 428 0
2019-12-10 18:52:45 GMT 45.926971 -0.140143 38,000 26 427 0
2019-12-10 18:52:42 GMT 45.916992 -0.147378 38,000 26 428 0
2019-12-10 18:52:34 GMT 45.907864 -0.153946 38,000 26 428 0
2019-12-10 18:52:31 GMT 45.900879 -0.159027 38,000 26 428 0
2019-12-10 18:52:23 GMT 45.888474 -0.168010 38,000 26 429 0
2019-12-10 18:52:17 GMT 45.879139 -0.174751 38,000 26 429 0
2019-12-10 18:52:13 GMT 45.870667 -0.180931 38,000 26 429 0
2019-12-10 18:52:10 GMT 45.866089 -0.184222 38,000 26 429 0
2019-12-10 18:52:07 GMT 45.852722 -0.193868 38,000 26 429 0
2019-12-10 18:52:03 GMT 45.852722 -0.193868 38,000 26 429 0
2019-12-10 18:52:00 GMT 45.847855 -0.197411 38,000 26 429 0
2019-12-10 18:51:56 GMT 45.842285 -0.201438 38,000 26 429 0
2019-12-10 18:51:53 GMT 45.834915 -0.206749 38,000 26 429 0
2019-12-10 18:51:49 GMT 45.826908 -0.212585 38,000 26 429 0
2019-12-10 18:51:44 GMT 45.818760 -0.218422 38,000 26 428 0
2019-12-10 18:51:41 GMT 45.809078 -0.225426 38,000 26 429 0
2019-12-10 18:51:38 GMT 45.809078 -0.225426 38,000 26 429 0
2019-12-10 18:51:32 GMT 45.799068 -0.232635 38,000 26 430 0
2019-12-10 18:51:29 GMT 45.793854 -0.236340 38,000 26 429 0
2019-12-10 18:51:22 GMT 45.771370 -0.252548 38,000 26 429 0
2019-12-10 18:51:17 GMT 45.771370 -0.252548 38,000 26 429 0
2019-12-10 18:51:11 GMT 45.762543 -0.258916 38,000 26 430 0
2019-12-10 18:51:06 GMT 45.753433 -0.265414 38,000 26 430 0
2019-12-10 18:51:01 GMT 45.744232 -0.272049 38,000 26 430 0
2019-12-10 18:50:57 GMT 45.736221 -0.277874 38,000 26 430 0
2019-12-10 18:50:51 GMT 45.716904 -0.291808 38,000 26 430 0
2019-12-10 18:50:47 GMT 45.716904 -0.291808 38,000 26 430 0
2019-12-10 18:50:43 GMT 45.710712 -0.296288 38,000 26 430 0
2019-12-10 18:50:39 GMT 45.703491 -0.301521 38,000 26 430 0
2019-12-10 18:50:31 GMT 45.690674 -0.310766 38,000 26 429 0
2019-12-10 18:50:28 GMT 45.685158 -0.314690 38,000 26 429 0
2019-12-10 18:50:24 GMT 45.678177 -0.319675 38,000 26 430 0
2019-12-10 18:50:20 GMT 45.671841 -0.324303 38,000 26 429 0
2019-12-10 18:50:17 GMT 45.666348 -0.328217 38,000 26 429 0
2019-12-10 18:50:11 GMT 45.653549 -0.337361 38,000 26 429 0
2019-12-10 18:50:06 GMT 45.644165 -0.344127 38,000 26 430 0
2019-12-10 18:50:00 GMT 45.626778 -0.356575 38,000 26 430 0
2019-12-10 18:49:55 GMT 45.626778 -0.356575 38,000 26 430 0
2019-12-10 18:49:50 GMT 45.617191 -0.363441 38,000 26 430 0
2019-12-10 18:49:45 GMT 45.608299 -0.369827 38,000 26 430 0
2019-12-10 18:49:42 GMT 45.602417 -0.374071 38,000 26 430 0
2019-12-10 18:49:39 GMT 45.598938 -0.376550 38,000 26 430 0
2019-12-10 18:49:34 GMT 45.587769 -0.384588 38,000 26 430 0
2019-12-10 18:49:29 GMT 45.579437 -0.390564 38,000 26 430 0
2019-12-10 18:49:26 GMT 45.576370 -0.392761 38,000 26 430 0
2019-12-10 18:49:23 GMT 45.569473 -0.397636 38,000 26 430 0
2019-12-10 18:49:19 GMT 45.563416 -0.401939 38,000 26 430 0
2019-12-10 18:49:16 GMT 45.557232 -0.406425 38,000 26 429 0
2019-12-10 18:49:12 GMT 45.548012 -0.413017 38,000 26 429 0
2019-12-10 18:49:09 GMT 45.544556 -0.415453 38,000 26 429 0
2019-12-10 18:49:06 GMT 45.540237 -0.418552 38,000 26 429 0
2019-12-10 18:49:02 GMT 45.533581 -0.423309 38,000 26 430 0
2019-12-10 18:48:59 GMT 45.526199 -0.428532 38,000 26 430 0
2019-12-10 18:48:55 GMT 45.520386 -0.432652 38,000 26 430 0
2019-12-10 18:48:50 GMT 45.510178 -0.439911 38,000 26 429 0
2019-12-10 18:48:47 GMT 45.505783 -0.443050 38,000 26 429 0
2019-12-10 18:48:44 GMT 45.501297 -0.446254 38,000 26 429 0
2019-12-10 18:48:40 GMT 45.493919 -0.451511 38,000 26 429 0
2019-12-10 18:48:37 GMT 45.488754 -0.455148 38,000 26 429 0
2019-12-10 18:48:34 GMT 45.482803 -0.459399 38,000 26 429 0
2019-12-10 18:48:30 GMT 45.475800 -0.464434 38,000 26 429 0
2019-12-10 18:48:26 GMT 45.467571 -0.470268 38,000 26 429 0
2019-12-10 18:48:20 GMT 45.458214 -0.476967 38,000 26 429 0
2019-12-10 18:48:17 GMT 45.452271 -0.481175 38,000 26 429 0
2019-12-10 18:48:14 GMT 45.447418 -0.484641 38,000 26 429 0
2019-12-10 18:48:10 GMT 45.439682 -0.490134 38,000 26 429 0
2019-12-10 18:48:06 GMT 45.433353 -0.494653 38,000 26 429 0
2019-12-10 18:48:03 GMT 45.427723 -0.498672 38,000 26 429 0
2019-12-10 18:48:00 GMT 45.422649 -0.502290 38,000 26 429 0
2019-12-10 18:47:56 GMT 45.415970 -0.507071 38,000 26 428 0
2019-12-10 18:47:53 GMT 45.410248 -0.511126 38,000 26 428 0
2019-12-10 18:47:50 GMT 45.402374 -0.516750 38,000 26 428 0
2019-12-10 18:47:46 GMT 45.397293 -0.520347 38,000 26 428 0
2019-12-10 18:47:43 GMT 45.390060 -0.525468 38,000 26 428 0
2019-12-10 18:47:38 GMT 45.382507 -0.530875 38,000 26 428 0
2019-12-10 18:47:35 GMT 45.379028 -0.533306 38,000 26 428 0
2019-12-10 18:47:31 GMT 45.371841 -0.538461 38,000 26 428 0
2019-12-10 18:47:28 GMT 45.366367 -0.542349 38,000 26 428 0
2019-12-10 18:47:25 GMT 45.360641 -0.546369 38,000 26 428 0
2019-12-10 18:47:22 GMT 45.355564 -0.549986 38,000 26 428 0
2019-12-10 18:47:18 GMT 45.348537 -0.555011 38,000 26 428 0
2019-12-10 18:47:15 GMT 45.342625 -0.559231 38,000 26 428 0
2019-12-10 18:47:12 GMT 45.338379 -0.562199 38,000 26 428 0
2019-12-10 18:47:08 GMT 45.329453 -0.568542 38,000 26 428 0
2019-12-10 18:47:04 GMT 45.324326 -0.572139 38,000 26 428 0
2019-12-10 18:46:59 GMT 45.314255 -0.579267 38,000 26 427 0
2019-12-10 18:46:55 GMT 45.302170 -0.587834 38,000 26 427 0
2019-12-10 18:46:49 GMT 45.296951 -0.591561 38,000 26 427 0
2019-12-10 18:46:45 GMT 45.284760 -0.600162 38,000 26 427 0
2019-12-10 18:46:42 GMT 45.284760 -0.600162 38,000 26 427 0
2019-12-10 18:46:39 GMT 45.278893 -0.604248 38,000 26 427 0
2019-12-10 18:46:34 GMT 45.271118 -0.609808 38,000 26 427 0
2019-12-10 18:46:27 GMT 45.259109 -0.618249 38,000 26 426 0
2019-12-10 18:46:24 GMT 45.252869 -0.622624 38,000 26 426 0
2019-12-10 18:46:21 GMT 45.247799 -0.626221 38,000 26 426 0
2019-12-10 18:46:17 GMT 45.239273 -0.632237 38,000 26 426 0
2019-12-10 18:46:14 GMT 45.233826 -0.636095 38,000 26 426 0
2019-12-10 18:46:11 GMT 45.229980 -0.638777 38,000 26 426 0
2019-12-10 18:46:07 GMT 45.221420 -0.644793 38,000 26 425 0
2019-12-10 18:46:04 GMT 45.217354 -0.647657 38,000 26 425 0
2019-12-10 18:46:01 GMT 45.211815 -0.651543 38,000 26 425 0
2019-12-10 18:45:58 GMT 45.206738 -0.655160 38,000 26 425 0
2019-12-10 18:45:53 GMT 45.189049 -0.667620 38,000 26 424 0
2019-12-10 18:45:49 GMT 45.189049 -0.667620 38,000 26 424 0
2019-12-10 18:45:46 GMT 45.184570 -0.670755 38,000 26 424 0
2019-12-10 18:45:42 GMT 45.179317 -0.674453 38,000 26 424 0
2019-12-10 18:45:38 GMT 45.169510 -0.681349 38,000 26 424 0
2019-12-10 18:45:33 GMT 45.163239 -0.685795 38,000 26 424 0
2019-12-10 18:45:30 GMT 45.158066 -0.689392 38,000 26 424 0
2019-12-10 18:45:27 GMT 45.152039 -0.693612 38,000 26 424 0
2019-12-10 18:45:23 GMT 45.145752 -0.698024 38,000 26 423 0
2019-12-10 18:45:20 GMT 45.139656 -0.702321 38,000 26 423 0
2019-12-10 18:45:17 GMT 45.134445 -0.706002 38,000 26 423 0
2019-12-10 18:45:13 GMT 45.127121 -0.711103 38,000 26 423 0
2019-12-10 18:45:10 GMT 45.115311 -0.719408 38,000 26 423 0
2019-12-10 18:45:07 GMT 45.115311 -0.719408 38,000 26 423 0
2019-12-10 18:45:03 GMT 45.110046 -0.723136 38,000 26 423 0
2019-12-10 18:45:00 GMT 45.104557 -0.726973 38,000 26 423 0
2019-12-10 18:44:57 GMT 45.100182 -0.729988 38,000 26 423 0
2019-12-10 18:44:52 GMT 45.091003 -0.736476 38,000 26 423 0
2019-12-10 18:44:47 GMT 45.081841 -0.742917 38,000 26 423 0
2019-12-10 18:44:42 GMT 45.073013 -0.749098 38,000 26 423 0
2019-12-10 18:44:37 GMT 45.065002 -0.754722 38,000 26 423 0
2019-12-10 18:44:32 GMT 45.055397 -0.761473 38,000 26 423 0
2019-12-10 18:44:29 GMT 45.045593 -0.768324 38,000 26 423 0
2019-12-10 18:44:20 GMT 45.036171 -0.774938 38,000 26 423 0
2019-12-10 18:44:16 GMT 45.028931 -0.780029 38,000 26 423 0
2019-12-10 18:44:11 GMT 45.019821 -0.786438 38,000 26 423 0
2019-12-10 18:44:07 GMT 45.006546 -0.795724 38,000 26 423 0
2019-12-10 18:44:00 GMT 44.990734 -0.806758 38,000 26 423 0
2019-12-10 18:43:55 GMT 44.990734 -0.806758 38,000 26 423 0
2019-12-10 18:43:52 GMT 44.983662 -0.811715 38,000 26 423 0
2019-12-10 18:43:49 GMT 44.981049 -0.813577 38,000 26 423 0
2019-12-10 18:43:45 GMT 44.974583 -0.818080 38,000 26 423 0
2019-12-10 18:43:40 GMT 44.965714 -0.824236 38,000 26 423 0
2019-12-10 18:43:36 GMT 44.947441 -0.837038 38,000 26 423 0
2019-12-10 18:43:30 GMT 44.947441 -0.837038 38,000 26 422 0
2019-12-10 18:43:27 GMT 44.939667 -0.842397 38,000 26 422 0
2019-12-10 18:43:24 GMT 44.933029 -0.847059 38,000 26 422 0
2019-12-10 18:43:20 GMT 44.929611 -0.849498 38,000 26 422 0
2019-12-10 18:43:16 GMT 44.922638 -0.854318 38,000 26 422 0
2019-12-10 18:43:10 GMT 44.911083 -0.862360 38,000 26 422 0
2019-12-10 18:43:05 GMT 44.904568 -0.866915 38,000 26 423 0
2019-12-10 18:42:59 GMT 44.886879 -0.879308 38,000 26 422 0
2019-12-10 18:42:55 GMT 44.886879 -0.879308 38,000 26 422 0
2019-12-10 18:42:49 GMT 44.875488 -0.887211 38,000 26 422 0
2019-12-10 18:42:46 GMT 44.869537 -0.891331 38,000 26 422 0
2019-12-10 18:42:43 GMT 44.865875 -0.893882 38,000 26 422 0
2019-12-10 18:42:39 GMT 44.857319 -0.899807 38,000 26 422 0
2019-12-10 18:42:35 GMT 44.851871 -0.903625 38,000 26 422 0
2019-12-10 18:42:28 GMT 44.839302 -0.912334 38,000 26 422 0
2019-12-10 18:42:25 GMT 44.833389 -0.916421 38,000 26 422 0
2019-12-10 18:42:19 GMT 44.824356 -0.922721 38,000 26 422 0
2019-12-10 18:42:16 GMT 44.817810 -0.927233 38,000 26 422 0
2019-12-10 18:42:12 GMT 44.810898 -0.932072 38,000 26 422 0
2019-12-10 18:42:09 GMT 44.797852 -0.941097 38,000 26 422 0
2019-12-10 18:42:06 GMT 44.797852 -0.941097 38,000 26 422 0
2019-12-10 18:41:58 GMT 44.786278 -0.949112 38,000 26 422 0
2019-12-10 18:41:55 GMT 44.780369 -0.953265 38,000 26 422 0
2019-12-10 18:41:51 GMT 44.766865 -0.962577 38,000 26 422 0
2019-12-10 18:41:47 GMT 44.766865 -0.962577 38,000 26 422 0
2019-12-10 18:41:44 GMT 44.762302 -0.965792 38,000 26 422 0
2019-12-10 18:41:40 GMT 44.756111 -0.970079 38,000 26 423 0
2019-12-10 18:41:37 GMT 44.748230 -0.975494 38,000 26 422 0
2019-12-10 18:41:34 GMT 44.744568 -0.978045 38,000 26 422 0
2019-12-10 18:41:27 GMT 44.731842 -0.986873 38,000 26 422 0
2019-12-10 18:41:16 GMT 44.711330 -1.001029 38,000 26 422 0
2019-12-10 18:41:07 GMT 44.696617 -1.011211 38,000 26 422 0
2019-12-10 18:41:04 GMT 44.691826 -1.014494 38,000 26 422 0
2019-12-10 18:40:55 GMT 44.674183 -1.026753 38,000 26 423 0
2019-12-10 18:40:47 GMT 44.660912 -1.035863 38,000 26 423 0
2019-12-10 18:40:44 GMT 44.656864 -1.038610 38,000 26 423 0
2019-12-10 18:40:34 GMT 44.638802 -1.051070 38,000 26 423 0
2019-12-10 18:40:29 GMT 44.630142 -1.057099 38,000 26 423 0
2019-12-10 18:40:24 GMT 44.621429 -1.063058 38,000 26 423 0
2019-12-10 18:40:20 GMT 44.613617 -1.068420 38,000 26 423 0
2019-12-10 18:40:13 GMT 44.601700 -1.076660 38,000 26 423 0
2019-12-10 18:40:05 GMT 44.579494 -1.091934 38,000 26 423 0
2019-12-10 18:40:00 GMT 44.579494 -1.091934 38,000 26 423 0
2019-12-10 18:39:55 GMT 44.570480 -1.098110 38,000 26 423 0
2019-12-10 18:39:52 GMT 44.565853 -1.101312 38,000 26 423 0
2019-12-10 18:39:43 GMT 44.549606 -1.112497 38,000 26 423 0
2019-12-10 18:39:40 GMT 44.543926 -1.116385 38,000 26 423 0
2019-12-10 18:39:34 GMT 44.531219 -1.125094 38,000 26 423 0
2019-12-10 18:39:31 GMT 44.529282 -1.126426 38,000 26 423 0
2019-12-10 18:39:25 GMT 44.516369 -1.135276 38,000 26 423 0
2019-12-10 18:39:21 GMT 44.511475 -1.138654 38,000 26 423 0
2019-12-10 18:39:16 GMT 44.503143 -1.144409 38,000 26 423 0
2019-12-10 18:39:13 GMT 44.496490 -1.148942 38,000 26 423 0
2019-12-10 18:39:10 GMT 44.490829 -1.152780 38,000 26 423 0
2019-12-10 18:39:03 GMT 44.479065 -1.160889 38,000 26 423 0
2019-12-10 18:38:59 GMT 44.473263 -1.164819 38,000 26 423 0
2019-12-10 18:38:52 GMT 44.460159 -1.173771 38,000 26 423 0
2019-12-10 18:38:48 GMT 44.453476 -1.178414 38,000 26 423 0
2019-12-10 18:38:44 GMT 44.444595 -1.184431 38,000 26 423 0
2019-12-10 18:38:40 GMT 44.438999 -1.188265 38,000 26 423 0
2019-12-10 18:38:32 GMT 44.424988 -1.197845 38,000 26 423 0
2019-12-10 18:38:29 GMT 44.419399 -1.201663 38,000 26 423 0
2019-12-10 18:38:23 GMT 44.401657 -1.213793 38,000 26 423 0
2019-12-10 18:38:20 GMT 44.390350 -1.221575 38,000 26 423 0
2019-12-10 18:38:12 GMT 44.390350 -1.221575 38,000 26 423 0
2019-12-10 18:38:09 GMT 44.384857 -1.225303 38,000 26 423 0
2019-12-10 18:38:05 GMT 44.377411 -1.230402 38,000 26 423 0
2019-12-10 18:38:02 GMT 44.371498 -1.234488 38,000 26 423 0
2019-12-10 18:37:58 GMT 44.366089 -1.238185 38,000 26 422 0
2019-12-10 18:37:52 GMT 44.348602 -1.250153 38,000 26 422 0
2019-12-10 18:37:49 GMT 44.348602 -1.250153 38,000 26 422 0
2019-12-10 18:37:40 GMT 44.327316 -1.264670 38,000 26 421 0
2019-12-10 18:37:36 GMT 44.317337 -1.271471 38,000 26 421 0
2019-12-10 18:37:30 GMT 44.317337 -1.271471 38,000 26 421 0
2019-12-10 18:37:25 GMT 44.307304 -1.278299 38,000 26 421 0
2019-12-10 18:37:22 GMT 44.300831 -1.282721 38,000 26 421 0
2019-12-10 18:37:18 GMT 44.293488 -1.287689 38,000 26 421 0
2019-12-10 18:37:10 GMT 44.280899 -1.296191 38,000 26 421 0
2019-12-10 18:37:07 GMT 44.275635 -1.299787 38,000 26 421 0
2019-12-10 18:37:00 GMT 44.263412 -1.308092 38,000 26 421 0
2019-12-10 18:36:57 GMT 44.256561 -1.312732 38,000 26 421 0
2019-12-10 18:36:49 GMT 44.244141 -1.321106 38,000 26 421 0
2019-12-10 18:36:44 GMT 44.235214 -1.327188 38,000 26 421 0
2019-12-10 18:36:40 GMT 44.228348 -1.331831 38,000 26 421 0
2019-12-10 18:36:29 GMT 44.209442 -1.344583 38,000 25 420 0
2019-12-10 18:36:19 GMT 44.191315 -1.356875 38,000 25 420 0
2019-12-10 18:36:15 GMT 44.184452 -1.361520 38,000 25 420 0
2019-12-10 18:36:08 GMT 44.173782 -1.368756 38,000 25 420 0
2019-12-10 18:36:04 GMT 44.166576 -1.373618 38,000 25 420 0
2019-12-10 18:36:01 GMT 44.159409 -1.378529 38,000 26 419 0
2019-12-10 18:35:58 GMT 44.155701 -1.381020 38,000 26 419 0
2019-12-10 18:35:55 GMT 44.148468 -1.385938 38,000 26 419 0
2019-12-10 18:35:51 GMT 44.141739 -1.390537 38,000 26 419 0
2019-12-10 18:35:48 GMT 44.138084 -1.392975 38,000 26 419 0
2019-12-10 18:35:43 GMT 44.129288 -1.398991 38,000 26 419 0
2019-12-10 18:35:40 GMT 44.124214 -1.402392 38,000 26 419 0
2019-12-10 18:35:37 GMT 44.118988 -1.405931 38,000 26 419 0
2019-12-10 18:35:34 GMT 44.103405 -1.416452 38,000 25 419 0
2019-12-10 18:35:29 GMT 44.103405 -1.416452 38,000 25 419 0
2019-12-10 18:35:26 GMT 44.099121 -1.419344 38,000 25 419 0
2019-12-10 18:35:22 GMT 44.093262 -1.423304 38,000 25 419 0
2019-12-10 18:35:18 GMT 44.079941 -1.432277 38,000 25 419 0
2019-12-10 18:35:10 GMT 44.070557 -1.438570 38,000 25 419 0
2019-12-10 18:35:07 GMT 44.067398 -1.440742 38,000 25 419 0
2019-12-10 18:35:03 GMT 44.058563 -1.446682 38,000 25 418 0
2019-12-10 18:34:59 GMT 44.053436 -1.450195 38,000 25 418 0
2019-12-10 18:34:56 GMT 44.048054 -1.453792 38,000 25 418 0
2019-12-10 18:34:49 GMT 44.034225 -1.463078 38,000 25 418 0
2019-12-10 18:34:45 GMT 44.028259 -1.467122 38,000 25 418 0
2019-12-10 18:34:40 GMT 44.017467 -1.474391 38,000 25 418 0
2019-12-10 18:34:34 GMT 44.000153 -1.486032 38,000 25 418 0
2019-12-10 18:34:29 GMT 44.000153 -1.486032 38,000 25 418 0
2019-12-10 18:34:25 GMT 43.992416 -1.491266 38,000 25 418 0
2019-12-10 18:34:18 GMT 43.975342 -1.502764 38,000 25 418 0
2019-12-10 18:34:15 GMT 43.975342 -1.502764 38,000 25 418 0
2019-12-10 18:34:09 GMT 43.964771 -1.509835 38,000 25 418 0
2019-12-10 18:34:04 GMT 43.955887 -1.515858 38,000 25 418 0
2019-12-10 18:33:59 GMT 43.947189 -1.521670 38,000 25 418 0
2019-12-10 18:33:54 GMT 43.938423 -1.527557 38,000 25 418 0
2019-12-10 18:33:49 GMT 43.930344 -1.532976 38,000 25 419 0
2019-12-10 18:33:44 GMT 43.922424 -1.538278 38,000 25 419 0
2019-12-10 18:33:38 GMT 43.912212 -1.545214 38,000 25 419 0
2019-12-10 18:33:34 GMT 43.904068 -1.550669 38,000 25 419 0
2019-12-10 18:33:28 GMT 43.894154 -1.557247 38,000 25 419 0
2019-12-10 18:33:23 GMT 43.885803 -1.562869 38,000 25 419 0
2019-12-10 18:33:19 GMT 43.876099 -1.569384 38,000 25 418 0
2019-12-10 18:33:15 GMT 43.869919 -1.573472 38,000 25 418 0
2019-12-10 18:33:08 GMT 43.858585 -1.581050 38,000 25 418 0
2019-12-10 18:33:03 GMT 43.850784 -1.586311 38,000 25 417 0
2019-12-10 18:32:57 GMT 43.840710 -1.593018 38,000 25 417 0
2019-12-10 18:32:53 GMT 43.830872 -1.599597 38,000 25 417 0
2019-12-10 18:32:47 GMT 43.823067 -1.604789 38,000 25 417 0
2019-12-10 18:32:43 GMT 43.816498 -1.609178 38,000 25 417 0
2019-12-10 18:32:37 GMT 43.806152 -1.616076 38,000 25 417 0
2019-12-10 18:32:32 GMT 43.796814 -1.622272 38,000 25 417 0
2019-12-10 18:32:27 GMT 43.788254 -1.628021 38,000 25 417 0
2019-12-10 18:32:21 GMT 43.778702 -1.634347 38,000 25 417 0
2019-12-10 18:32:17 GMT 43.770649 -1.639709 38,000 25 417 0
2019-12-10 18:32:12 GMT 43.762081 -1.645464 38,000 25 417 0
2019-12-10 18:32:08 GMT 43.753750 -1.650957 38,000 25 417 0
2019-12-10 18:32:02 GMT 43.744034 -1.657466 38,000 25 417 0
2019-12-10 18:31:57 GMT 43.734898 -1.663579 38,000 25 417 0
2019-12-10 18:31:51 GMT 43.717300 -1.675284 38,000 25 417 0
2019-12-10 18:31:47 GMT 43.717300 -1.675284 38,000 25 417 0
2019-12-10 18:31:41 GMT 43.708641 -1.681104 38,000 25 417 0
2019-12-10 18:31:37 GMT 43.700134 -1.686721 38,000 25 417 0
2019-12-10 18:31:31 GMT 43.691650 -1.692418 38,000 25 417 0
2019-12-10 18:31:27 GMT 43.682739 -1.698346 38,000 25 417 0
2019-12-10 18:31:21 GMT 43.674377 -1.703927 38,000 25 417 0
2019-12-10 18:31:15 GMT 43.663193 -1.711440 38,000 25 417 0
2019-12-10 18:31:09 GMT 43.653152 -1.718118 38,000 25 417 0
2019-12-10 18:31:06 GMT 43.646530 -1.722490 38,000 25 417 0
2019-12-10 18:31:00 GMT 43.636669 -1.729039 38,000 25 417 0
2019-12-10 18:30:57 GMT 43.629684 -1.733668 38,000 25 417 0
2019-12-10 18:30:49 GMT 43.618240 -1.741269 38,000 25 417 0
2019-12-10 18:30:46 GMT 43.613068 -1.744734 38,000 25 417 0
2019-12-10 18:30:36 GMT 43.594620 -1.756918 38,000 25 417 0
2019-12-10 18:30:29 GMT 43.583462 -1.764287 38,000 25 417 0
2019-12-10 18:30:25 GMT 43.576630 -1.768799 38,000 25 417 0
2019-12-10 18:30:20 GMT 43.566936 -1.775208 38,000 25 417 0
2019-12-10 18:30:16 GMT 43.559952 -1.779785 38,000 25 417 0
2019-12-10 18:30:09 GMT 43.547943 -1.787763 38,000 25 417 0
2019-12-10 18:30:05 GMT 43.540878 -1.792432 38,000 25 417 0
2019-12-10 18:29:58 GMT 43.530075 -1.799586 38,000 25 417 0
2019-12-10 18:29:55 GMT 43.523300 -1.803993 38,000 25 416 0
2019-12-10 18:29:48 GMT 43.512543 -1.811083 38,000 25 416 0
2019-12-10 18:29:45 GMT 43.506001 -1.815425 38,000 25 417 0
2019-12-10 18:29:39 GMT 43.495617 -1.822292 38,000 25 417 0
2019-12-10 18:29:35 GMT 43.488785 -1.826796 38,000 25 417 0
2019-12-10 18:29:29 GMT 43.479465 -1.832951 38,000 25 417 0
2019-12-10 18:29:24 GMT 43.470840 -1.838613 38,000 25 417 0
2019-12-10 18:29:19 GMT 43.461868 -1.844526 38,000 25 416 0
2019-12-10 18:29:15 GMT 43.454681 -1.849280 38,000 25 416 0
2019-12-10 18:29:10 GMT 43.445202 -1.855512 38,000 25 415 0
2019-12-10 18:29:07 GMT 43.441151 -1.858194 38,000 25 415 0
2019-12-10 18:29:04 GMT 43.423183 -1.870030 38,000 25 415 0
2019-12-10 18:28:57 GMT 43.423183 -1.870030 38,000 25 415 0
2019-12-10 18:28:54 GMT 43.417969 -1.873431 38,000 25 415 0
2019-12-10 18:28:47 GMT 43.405495 -1.881605 38,000 25 415 0
2019-12-10 18:28:43 GMT 43.391621 -1.890760 38,000 25 415 0
2019-12-10 18:28:40 GMT 43.391621 -1.890760 38,000 25 415 0
2019-12-10 18:28:36 GMT 43.386730 -1.893964 38,000 25 415 0
2019-12-10 18:28:32 GMT 43.379608 -1.898608 38,000 25 415 0
2019-12-10 18:28:29 GMT 43.374119 -1.902270 38,000 25 415 0
2019-12-10 18:28:26 GMT 43.368996 -1.905605 38,000 25 415 0
2019-12-10 18:28:23 GMT 43.363781 -1.909071 38,000 25 415 0
2019-12-10 18:28:19 GMT 43.356800 -1.913648 38,000 25 415 0
2019-12-10 18:28:16 GMT 43.351730 -1.916923 38,000 25 415 0
2019-12-10 18:28:13 GMT 43.346279 -1.920515 38,000 25 415 0
2019-12-10 18:28:09 GMT 43.339436 -1.925027 38,000 25 415 -64
2019-12-10 18:28:05 GMT 43.334061 -1.928548 38,025 25 415 -64
2019-12-10 18:27:58 GMT 43.321651 -1.936667 38,000 25 414 448
2019-12-10 18:27:54 GMT 43.314808 -1.941180 37,475 25 417 1088
2019-12-10 18:27:48 GMT 43.303848 -1.948349 37,850 25 414 1024
2019-12-10 18:27:42 GMT 43.292862 -1.955566 37,725 25 415 1024
2019-12-10 18:27:39 GMT 43.285622 -1.960340 37,650 25 415 1024
2019-12-10 18:27:31 GMT 43.274773 -1.967468 37,550 25 416 1024
2019-12-10 18:27:27 GMT 43.267685 -1.972110 37,450 25 417 1024
2019-12-10 18:27:21 GMT 43.257019 -1.979136 37,375 25 417 1024
2019-12-10 18:27:18 GMT 43.251251 -1.982904 37,325 25 418 1024
2019-12-10 18:27:14 GMT 43.245213 -1.986891 36,675 25 418 1024
2019-12-10 18:27:11 GMT 43.239952 -1.990356 37,200 25 418 1024
2019-12-10 18:27:07 GMT 43.232483 -1.995296 37,125 25 418 1088
2019-12-10 18:27:04 GMT 43.227127 -1.998809 37,075 25 418 1088
2019-12-10 18:26:58 GMT 43.215912 -2.006218 36,975 25 419 1088
2019-12-10 18:26:53 GMT 43.197784 -2.018099 36,850 25 420 1152
2019-12-10 18:26:47 GMT 43.197784 -2.018099 36,775 25 420 1152
2019-12-10 18:26:42 GMT 43.189545 -2.023528 36,675 25 421 1152
2019-12-10 18:26:35 GMT 43.176735 -2.031882 36,550 25 420 1152
2019-12-10 18:26:32 GMT 43.171474 -2.035283 36,475 25 421 1216
2019-12-10 18:26:26 GMT 43.161072 -2.041988 36,375 25 422 1152
2019-12-10 18:26:23 GMT 43.154984 -2.046076 36,225 27 423 1152
2019-12-10 18:26:20 GMT 43.143402 -2.054316 36,225 27 424 1216
2019-12-10 18:26:17 GMT 43.143402 -2.054316 36,175 29 425 1088
2019-12-10 18:26:10 GMT 43.132782 -2.062683 36,075 31 427 640
2019-12-10 18:26:06 GMT 43.125229 -2.069071 36,025 32 428 448
2019-12-10 18:26:02 GMT 43.120239 -2.073542 36,025 34 428 192
2019-12-10 18:25:56 GMT 43.110443 -2.082890 36,000 36 428 0
2019-12-10 18:25:51 GMT 43.101646 -2.091915 36,000 38 429 0
2019-12-10 18:25:47 GMT 43.093731 -2.100808 36,000 40 431 0
2019-12-10 18:25:41 GMT 43.087646 -2.108098 36,000 42 433 0
2019-12-10 18:25:35 GMT 43.078136 -2.119904 36,000 42 433 0
2019-12-10 18:25:31 GMT 43.072643 -2.126639 36,000 42 433 0
2019-12-10 18:25:26 GMT 43.063988 -2.137364 36,000 42 433 0
2019-12-10 18:25:20 GMT 43.055145 -2.148210 36,000 42 433 0
2019-12-10 18:25:16 GMT 43.048462 -2.156514 36,000 42 433 0
2019-12-10 18:25:11 GMT 43.042328 -2.164115 36,000 42 432 0
2019-12-10 18:25:08 GMT 43.037613 -2.169928 36,000 42 433 0
2019-12-10 18:25:05 GMT 43.033813 -2.174654 36,000 42 433 0
2019-12-10 18:24:57 GMT 43.021717 -2.189549 36,000 42 433 0
2019-12-10 18:24:54 GMT 43.017014 -2.195369 36,000 42 433 0
2019-12-10 18:24:44 GMT 43.002769 -2.212895 36,000 42 432 0
2019-12-10 18:24:35 GMT 42.987625 -2.231438 36,000 42 433 0
2019-12-10 18:24:25 GMT 42.973068 -2.249451 36,000 42 432 0
2019-12-10 18:24:18 GMT 42.963867 -2.260693 36,000 42 432 0
2019-12-10 18:24:13 GMT 42.956635 -2.269571 36,000 42 433 0
2019-12-10 18:24:07 GMT 42.947418 -2.280906 36,000 42 432 0
2019-12-10 18:24:04 GMT 42.942902 -2.286464 36,000 42 433 0
2019-12-10 18:23:59 GMT 42.935394 -2.295695 36,000 42 433 0
2019-12-10 18:23:54 GMT 42.926655 -2.306410 36,000 42 433 0
2019-12-10 18:23:48 GMT 42.919373 -2.315369 36,000 42 433 0
2019-12-10 18:23:43 GMT 42.910904 -2.325716 36,000 42 433 0
2019-12-10 18:23:38 GMT 42.903751 -2.334464 36,000 42 433 0
2019-12-10 18:23:34 GMT 42.895798 -2.344240 36,000 42 433 0
2019-12-10 18:23:28 GMT 42.889786 -2.351597 36,000 42 433 0
2019-12-10 18:23:25 GMT 42.883827 -2.358922 36,000 42 433 0
2019-12-10 18:23:22 GMT 42.879730 -2.363892 36,000 42 433 0
2019-12-10 18:23:13 GMT 42.866089 -2.380648 36,000 42 433 0
2019-12-10 18:23:07 GMT 42.850636 -2.399532 36,000 42 433 0
2019-12-10 18:23:02 GMT 42.850636 -2.399532 36,000 42 433 0
2019-12-10 18:22:52 GMT 42.828735 -2.426318 36,000 42 433 0
2019-12-10 18:22:47 GMT 42.828735 -2.426318 36,000 42 433 0
2019-12-10 18:22:43 GMT 42.821594 -2.435005 36,000 42 433 0
2019-12-10 18:22:32 GMT 42.805202 -2.455061 36,000 41 432 0
2019-12-10 18:22:24 GMT 42.792572 -2.470426 36,000 41 432 0
2019-12-10 18:22:13 GMT 42.777283 -2.489090 36,000 41 432 0
2019-12-10 18:22:03 GMT 42.762451 -2.507130 36,000 41 432 0
2019-12-10 18:21:59 GMT 42.757233 -2.513560 36,000 41 432 0
2019-12-10 18:21:55 GMT 42.751282 -2.520738 36,000 41 432 0
2019-12-10 18:21:52 GMT 42.746593 -2.526408 36,000 41 432 0
2019-12-10 18:21:43 GMT 42.732208 -2.543910 36,000 41 432 0
2019-12-10 18:21:39 GMT 42.726791 -2.550451 36,000 41 432 0
2019-12-10 18:21:35 GMT 42.720840 -2.557692 36,000 41 431 0
2019-12-10 18:21:32 GMT 42.716286 -2.563200 36,000 41 431 0
2019-12-10 18:21:26 GMT 42.706280 -2.575336 36,000 41 432 0
2019-12-10 18:21:22 GMT 42.701935 -2.580601 36,000 41 432 0
2019-12-10 18:21:15 GMT 42.691635 -2.593023 36,000 41 431 0
2019-12-10 18:21:12 GMT 42.686279 -2.599515 36,000 41 431 0
2019-12-10 18:21:02 GMT 42.666321 -2.623610 36,000 41 431 0
2019-12-10 18:20:52 GMT 42.656235 -2.635761 36,000 41 430 0
2019-12-10 18:20:45 GMT 42.645248 -2.649046 36,000 41 431 0
2019-12-10 18:20:42 GMT 42.629608 -2.667930 36,000 41 431 0
2019-12-10 18:20:35 GMT 42.629608 -2.667930 36,000 41 430 0
2019-12-10 18:20:32 GMT 42.626587 -2.671613 36,000 41 430 0
2019-12-10 18:20:24 GMT 42.614639 -2.686032 36,000 41 430 0
2019-12-10 18:20:19 GMT 42.608459 -2.693461 36,000 41 430 0
2019-12-10 18:20:13 GMT 42.593575 -2.711451 36,000 41 430 0
2019-12-10 18:20:10 GMT 42.593575 -2.711451 36,000 41 430 0
2019-12-10 18:20:03 GMT 42.583195 -2.724035 36,000 41 430 0
2019-12-10 18:19:59 GMT 42.578522 -2.729666 36,000 41 430 0
2019-12-10 18:19:51 GMT 42.565933 -2.744959 36,000 41 431 0
2019-12-10 18:19:48 GMT 42.562290 -2.749329 36,000 41 431 0
2019-12-10 18:19:40 GMT 42.550415 -2.763748 36,000 41 431 0
2019-12-10 18:19:29 GMT 42.533569 -2.784140 36,000 41 431 0
2019-12-10 18:19:21 GMT 42.520302 -2.800300 36,000 41 431 0
2019-12-10 18:19:10 GMT 42.490555 -2.836261 36,000 41 432 0
2019-12-10 18:19:00 GMT 42.490555 -2.836261 36,000 42 431 0
2019-12-10 18:18:50 GMT 42.475021 -2.856383 36,000 46 435 0
2019-12-10 18:18:47 GMT 42.472092 -2.860565 36,000 47 436 0
2019-12-10 18:18:39 GMT 42.461655 -2.876670 36,000 50 439 -64
2019-12-10 18:18:31 GMT 42.450985 -2.895217 36,000 54 442 0
2019-12-10 18:17:56 GMT 42.414505 -2.981415 36,000 62 450 0
2019-12-10 18:17:46 GMT 42.405487 -3.004823 36,000 62 450 -64
2019-12-10 18:17:36 GMT 42.396332 -3.028650 36,000 62 450 -64
2019-12-10 18:17:30 GMT 42.389816 -3.045512 36,000 62 450 0
2019-12-10 18:17:18 GMT 42.378922 -3.073681 36,000 62 450 0
2019-12-10 18:17:10 GMT 42.371429 -3.093026 36,000 62 449 0
2019-12-10 18:16:59 GMT 42.360813 -3.120437 36,000 62 450 0
2019-12-10 18:16:47 GMT 42.348289 -3.152757 36,000 62 451 0
2019-12-10 18:16:44 GMT 42.345566 -3.159818 36,000 62 451 0
2019-12-10 18:16:38 GMT 42.340611 -3.172558 36,000 62 451 0
2019-12-10 18:16:34 GMT 42.335442 -3.185844 36,000 62 451 0
2019-12-10 18:16:27 GMT 42.328674 -3.203389 36,000 62 451 0
2019-12-10 18:16:24 GMT 42.326736 -3.208391 36,000 62 451 0
2019-12-10 18:16:19 GMT 42.321709 -3.221230 36,000 62 452 0
2019-12-10 18:16:13 GMT 42.316032 -3.235985 36,000 62 452 0
2019-12-10 18:16:09 GMT 42.312103 -3.246085 36,000 62 452 0
2019-12-10 18:16:05 GMT 42.308025 -3.256488 36,000 62 452 0
2019-12-10 18:15:59 GMT 42.302113 -3.271690 36,000 62 451 0
2019-12-10 18:15:54 GMT 42.298004 -3.282290 36,000 62 451 0
2019-12-10 18:15:48 GMT 42.291916 -3.297879 36,000 62 452 0
2019-12-10 18:15:44 GMT 42.287064 -3.310318 36,000 62 452 0
2019-12-10 18:15:37 GMT 42.280563 -3.327047 36,000 62 452 0
2019-12-10 18:15:27 GMT 42.270859 -3.351891 36,000 62 452 0
2019-12-10 18:15:24 GMT 42.268734 -3.357345 36,000 62 453 0
2019-12-10 18:15:17 GMT 42.261520 -3.375737 36,000 62 452 0
2019-12-10 18:15:14 GMT 42.258728 -3.382915 36,000 62 452 0
2019-12-10 18:15:05 GMT 42.248657 -3.408571 36,000 62 452 0
2019-12-10 18:14:57 GMT 42.241734 -3.426265 36,000 62 452 0
2019-12-10 18:14:53 GMT 42.237991 -3.435849 36,000 62 452 0
2019-12-10 18:14:48 GMT 42.232452 -3.449957 36,000 62 452 0
2019-12-10 18:14:44 GMT 42.229248 -3.458196 36,000 62 452 0
2019-12-10 18:14:37 GMT 42.222229 -3.476151 36,000 62 452 -64
2019-12-10 18:14:34 GMT 42.219482 -3.483177 36,000 62 452 -64
2019-12-10 18:14:26 GMT 42.212265 -3.501518 36,000 62 452 0
2019-12-10 18:14:23 GMT 42.209286 -3.509110 36,000 62 452 0
2019-12-10 18:14:17 GMT 42.202469 -3.526549 36,000 62 452 0
2019-12-10 18:14:13 GMT 42.199558 -3.533893 36,000 62 452 0
2019-12-10 18:14:04 GMT 42.189560 -3.559321 36,000 62 452 0
2019-12-10 18:13:57 GMT 42.182472 -3.577263 36,000 62 452 0
2019-12-10 18:13:52 GMT 42.179123 -3.585788 36,000 62 452 0
2019-12-10 18:13:46 GMT 42.172348 -3.603016 36,000 62 452 0
2019-12-10 18:13:43 GMT 42.169647 -3.609820 36,000 62 453 0
2019-12-10 18:13:36 GMT 42.162502 -3.628043 36,000 62 453 0
2019-12-10 18:13:33 GMT 42.159897 -3.634686 36,000 62 453 0
2019-12-10 18:13:23 GMT 42.149872 -3.660133 36,000 62 453 0
2019-12-10 18:13:15 GMT 42.142456 -3.678922 36,000 62 454 0
2019-12-10 18:13:12 GMT 42.139801 -3.685601 36,000 62 454 0
2019-12-10 18:13:06 GMT 42.129913 -3.710695 36,000 62 454 -64
2019-12-10 18:12:55 GMT 42.122234 -3.730114 36,000 62 454 0
2019-12-10 18:12:52 GMT 42.119392 -3.737268 36,000 62 454 0
2019-12-10 18:12:45 GMT 42.112598 -3.754386 36,000 62 454 0
2019-12-10 18:12:42 GMT 42.109589 -3.762068 36,000 62 454 0
2019-12-10 18:12:35 GMT 42.102173 -3.780795 36,000 61 454 0
2019-12-10 18:12:22 GMT 42.089767 -3.812069 36,000 61 454 0
2019-12-10 18:12:15 GMT 42.082489 -3.830358 36,000 61 454 0
2019-12-10 18:12:11 GMT 42.078644 -3.839971 36,000 61 454 64
2019-12-10 18:12:04 GMT 42.068790 -3.864760 36,000 61 455 0
2019-12-10 18:12:00 GMT 42.068790 -3.864760 36,000 61 455 0
2019-12-10 18:11:54 GMT 42.061981 -3.881794 36,000 61 455 0
2019-12-10 18:11:51 GMT 42.059097 -3.889035 36,000 61 454 0
2019-12-10 18:11:43 GMT 42.048962 -3.914454 36,000 61 454 0
2019-12-10 18:11:40 GMT 42.048962 -3.914454 36,000 61 454 0
2019-12-10 18:11:34 GMT 42.041977 -3.931956 36,000 61 453 0
2019-12-10 18:11:30 GMT 42.039043 -3.939365 36,000 61 453 0
2019-12-10 18:11:24 GMT 42.031734 -3.957633 36,000 61 453 0
2019-12-10 18:11:20 GMT 42.028431 -3.965873 36,000 61 453 0
2019-12-10 18:11:13 GMT 42.021683 -3.982863 36,000 61 454 0
2019-12-10 18:11:10 GMT 42.018932 -3.989762 36,000 61 454 0
2019-12-10 18:11:02 GMT 42.011078 -4.009448 36,000 61 455 -64
2019-12-10 18:10:59 GMT 42.007950 -4.017291 36,000 61 454 0
2019-12-10 18:10:53 GMT 42.001572 -4.033260 36,000 61 455 0
2019-12-10 18:10:50 GMT 41.998901 -4.039972 36,000 61 454 0
2019-12-10 18:10:42 GMT 41.991470 -4.058618 36,000 61 455 -64
2019-12-10 18:10:39 GMT 41.988441 -4.066155 36,000 61 455 -64
2019-12-10 18:10:33 GMT 41.981178 -4.084295 36,000 61 454 0
2019-12-10 18:10:28 GMT 41.977551 -4.093365 36,000 61 454 0
2019-12-10 18:10:20 GMT 41.968094 -4.116939 36,000 61 453 0
2019-12-10 18:10:09 GMT 41.958160 -4.141783 36,000 61 452 0
2019-12-10 18:10:01 GMT 41.950687 -4.160305 36,000 61 452 0
2019-12-10 18:09:58 GMT 41.947632 -4.167938 36,000 61 453 0
2019-12-10 18:09:51 GMT 41.940353 -4.186103 36,000 61 452 0
2019-12-10 18:09:48 GMT 41.937561 -4.193094 36,000 61 452 0
2019-12-10 18:09:42 GMT 41.930252 -4.211213 36,000 61 452 0
2019-12-10 18:09:38 GMT 41.927902 -4.217127 36,000 61 452 64
2019-12-10 18:09:31 GMT 41.920429 -4.235804 36,000 61 452 64
2019-12-10 18:09:28 GMT 41.917282 -4.243657 36,000 61 453 64
2019-12-10 18:09:22 GMT 41.912018 -4.256703 36,000 61 453 0
2019-12-10 18:09:19 GMT 41.907394 -4.268188 36,000 61 453 0
2019-12-10 18:09:11 GMT 41.900272 -4.285882 36,000 61 453 -64
2019-12-10 18:09:07 GMT 41.897141 -4.293594 36,000 61 453 0
2019-12-10 18:09:01 GMT 41.890320 -4.310511 36,000 61 453 0
2019-12-10 18:08:58 GMT 41.887379 -4.317819 36,000 61 453 -64
2019-12-10 18:08:51 GMT 41.879326 -4.337683 36,000 61 452 0
2019-12-10 18:08:48 GMT 41.877319 -4.342596 36,000 61 452 0
2019-12-10 18:08:40 GMT 41.869640 -4.361572 36,000 61 452 0
2019-12-10 18:08:37 GMT 41.867126 -4.367832 36,000 61 452 0
2019-12-10 18:08:31 GMT 41.861214 -4.382395 36,000 61 453 0
2019-12-10 18:08:28 GMT 41.857121 -4.392423 36,000 61 453 0
2019-12-10 18:08:22 GMT 41.851547 -4.406267 36,000 61 453 0
2019-12-10 18:08:17 GMT 41.846970 -4.417526 36,000 61 453 64
2019-12-10 18:08:10 GMT 41.838825 -4.437646 36,000 61 453 64
2019-12-10 18:08:07 GMT 41.836964 -4.442309 36,000 61 453 0
2019-12-10 18:07:59 GMT 41.829048 -4.461918 36,000 61 453 0
2019-12-10 18:07:56 GMT 41.825958 -4.469500 36,000 61 453 0
2019-12-10 18:07:49 GMT 41.819038 -4.486638 36,000 61 453 -64
2019-12-10 18:07:46 GMT 41.816338 -4.493280 36,000 61 453 0
2019-12-10 18:07:39 GMT 41.808563 -4.512447 36,000 61 453 0
2019-12-10 18:07:36 GMT 41.804993 -4.521249 36,000 61 453 0
2019-12-10 18:07:30 GMT 41.800186 -4.533109 36,000 61 454 0
2019-12-10 18:07:26 GMT 41.796227 -4.542911 36,000 61 454 0
2019-12-10 18:07:19 GMT 41.785847 -4.568396 36,000 61 454 0
2019-12-10 18:07:11 GMT 41.780731 -4.580987 36,000 61 455 -64
2019-12-10 18:07:06 GMT 41.775421 -4.594010 36,000 61 455 0
2019-12-10 18:07:01 GMT 41.770523 -4.606080 36,000 61 455 0
2019-12-10 18:06:58 GMT 41.767548 -4.613384 36,000 61 455 0
2019-12-10 18:06:47 GMT 41.756424 -4.640725 36,000 61 456 0
2019-12-10 18:06:44 GMT 41.753998 -4.646717 36,000 61 456 0
2019-12-10 18:06:39 GMT 41.748138 -4.661137 36,000 61 456 0
2019-12-10 18:06:35 GMT 41.744156 -4.670937 36,000 61 456 64
2019-12-10 18:06:32 GMT 41.742096 -4.675993 36,000 61 456 0
2019-12-10 18:06:28 GMT 41.737061 -4.688416 36,000 61 457 0
2019-12-10 18:06:23 GMT 41.733055 -4.698188 36,000 61 457 64
2019-12-10 18:06:19 GMT 41.728317 -4.709826 36,000 61 457 0
2019-12-10 18:06:15 GMT 41.724491 -4.719203 36,000 61 457 0
2019-12-10 18:06:07 GMT 41.716049 -4.739602 36,000 59 456 0
2019-12-10 18:06:04 GMT 41.713318 -4.745902 36,000 58 456 0
2019-12-10 18:05:59 GMT 41.707546 -4.758294 36,000 56 454 0
2019-12-10 18:05:55 GMT 41.702454 -4.768503 36,000 56 453 0
2019-12-10 18:05:49 GMT 41.694626 -4.784234 36,000 56 455 0
2019-12-10 18:05:44 GMT 41.690510 -4.792530 36,000 56 455 0
2019-12-10 18:05:38 GMT 41.678917 -4.815716 36,000 56 455 0
2019-12-10 18:05:35 GMT 41.678917 -4.815716 36,000 56 455 0
2019-12-10 18:05:27 GMT 41.668854 -4.835857 36,000 56 455 0
2019-12-10 18:05:24 GMT 41.667046 -4.839541 36,000 56 455 0
2019-12-10 18:05:19 GMT 41.660980 -4.851650 36,000 56 455 64
2019-12-10 18:05:14 GMT 41.654663 -4.864388 36,000 56 455 0
2019-12-10 18:05:09 GMT 41.648849 -4.875995 36,000 56 455 0
2019-12-10 18:05:03 GMT 41.642372 -4.888980 36,000 56 455 0
2019-12-10 18:04:59 GMT 41.637390 -4.898944 36,000 56 455 -64
2019-12-10 18:04:54 GMT 41.631435 -4.910825 36,000 56 455 0
2019-12-10 18:04:46 GMT 41.621052 -4.931520 36,000 56 455 64
2019-12-10 18:04:43 GMT 41.619331 -4.934969 36,000 56 455 64
2019-12-10 18:04:38 GMT 41.606949 -4.959625 36,000 56 456 64
2019-12-10 18:04:34 GMT 41.606949 -4.959625 36,000 56 456 0
2019-12-10 18:04:26 GMT 41.598450 -4.976495 36,000 56 457 0
2019-12-10 18:04:21 GMT 41.592049 -4.989262 36,000 56 457 0
2019-12-10 18:04:18 GMT 41.589111 -4.995096 36,000 56 457 0
2019-12-10 18:04:15 GMT 41.586548 -5.000215 36,000 56 457 0
2019-12-10 18:04:11 GMT 41.581421 -5.010390 36,000 56 457 0
2019-12-10 18:04:08 GMT 41.578037 -5.017111 36,000 56 457 0
2019-12-10 18:04:02 GMT 41.571056 -5.030972 36,000 56 457 0
2019-12-10 18:03:58 GMT 41.563019 -5.047094 36,000 56 458 0
2019-12-10 18:03:55 GMT 41.559372 -5.054222 36,000 56 458 0
2019-12-10 18:03:52 GMT 41.554916 -5.063074 36,000 56 458 0
2019-12-10 18:03:49 GMT 41.550797 -5.071314 36,000 56 458 0
2019-12-10 18:03:46 GMT 41.550797 -5.071314 36,000 56 458 0
2019-12-10 18:03:42 GMT 41.546631 -5.079554 36,000 56 458 -64
2019-12-10 18:03:38 GMT 41.542099 -5.088650 36,000 56 458 -64
2019-12-10 18:03:32 GMT 41.534698 -5.103277 36,000 56 458 64
2019-12-10 18:03:27 GMT 41.529995 -5.112667 36,000 56 458 64
2019-12-10 18:03:24 GMT 41.526489 -5.119566 36,000 56 458 64
2019-12-10 18:03:21 GMT 41.517845 -5.136747 36,000 56 459 0
2019-12-10 18:03:17 GMT 41.517845 -5.136747 36,000 56 459 0
2019-12-10 18:03:11 GMT 41.510677 -5.150991 36,000 56 459 0
2019-12-10 18:03:07 GMT 41.505791 -5.160572 36,000 56 459 0
2019-12-10 18:03:01 GMT 41.499069 -5.173999 36,000 56 458 0
2019-12-10 18:02:57 GMT 41.494034 -5.183924 36,000 56 459 -64
2019-12-10 18:02:51 GMT 41.487350 -5.197095 36,000 56 458 0
2019-12-10 18:02:47 GMT 41.482002 -5.207775 36,000 56 459 0
2019-12-10 18:02:42 GMT 41.474808 -5.221939 36,000 56 458 64
2019-12-10 18:02:39 GMT 41.472519 -5.226496 36,000 56 458 0
2019-12-10 18:02:34 GMT 41.465988 -5.239393 36,000 56 458 0
2019-12-10 18:02:31 GMT 41.462952 -5.245347 36,000 56 458 0
2019-12-10 18:02:27 GMT 41.458237 -5.254711 36,000 56 458 0
2019-12-10 18:02:23 GMT 41.453430 -5.264137 36,000 56 458 0
2019-12-10 18:02:15 GMT 41.443970 -5.282763 36,000 56 458 64
2019-12-10 18:02:11 GMT 41.439194 -5.292227 36,000 56 458 0
2019-12-10 18:02:07 GMT 41.434937 -5.300591 36,000 55 458 0
2019-12-10 18:02:03 GMT 41.428482 -5.313263 36,000 55 458 64
2019-12-10 18:02:00 GMT 41.426834 -5.316489 36,000 55 459 0
2019-12-10 18:01:56 GMT 41.421295 -5.327370 36,000 55 459 0
2019-12-10 18:01:53 GMT 41.416946 -5.335985 36,000 55 459 0
2019-12-10 18:01:48 GMT 41.412220 -5.345296 36,000 55 459 0
2019-12-10 18:01:44 GMT 41.407150 -5.355211 36,000 55 459 0
2019-12-10 18:01:40 GMT 41.397675 -5.373875 36,000 55 459 0
2019-12-10 18:01:36 GMT 41.397675 -5.373875 36,000 55 459 0
2019-12-10 18:01:30 GMT 41.390385 -5.388219 36,000 55 459 0
2019-12-10 18:01:26 GMT 41.385822 -5.397221 36,000 55 459 0
2019-12-10 18:01:20 GMT 41.378513 -5.411578 36,000 55 459 0
2019-12-10 18:01:17 GMT 41.374878 -5.418762 36,000 55 459 0
2019-12-10 18:01:14 GMT 41.371811 -5.424744 36,000 55 459 0
2019-12-10 18:01:10 GMT 41.366501 -5.435181 36,000 55 459 0
2019-12-10 18:01:04 GMT 41.359756 -5.448470 36,000 55 459 -64
2019-12-10 18:00:59 GMT 41.354214 -5.459331 36,000 55 459 -64
2019-12-10 18:00:55 GMT 41.349560 -5.468445 36,000 55 458 0
2019-12-10 18:00:50 GMT 41.341694 -5.483926 36,000 55 458 0
2019-12-10 18:00:45 GMT 41.337158 -5.492859 36,000 55 458 0
2019-12-10 18:00:40 GMT 41.331848 -5.503296 36,000 55 458 64
2019-12-10 18:00:37 GMT 41.327957 -5.510803 36,000 55 458 0
2019-12-10 18:00:34 GMT 41.324799 -5.517029 36,000 55 458 0
2019-12-10 18:00:29 GMT 41.317951 -5.530430 36,000 55 459 0
2019-12-10 18:00:25 GMT 41.313675 -5.538818 36,000 55 459 0
2019-12-10 18:00:20 GMT 41.307495 -5.550781 36,000 55 459 0
2019-12-10 18:00:15 GMT 41.301517 -5.562515 36,000 55 459 0
2019-12-10 18:00:08 GMT 41.293465 -5.578246 36,000 55 458 0
2019-12-10 18:00:05 GMT 41.289368 -5.586243 36,000 55 457 0
2019-12-10 17:59:57 GMT 41.279545 -5.605462 36,000 55 457 0
2019-12-10 17:59:54 GMT 41.276505 -5.611389 36,000 55 457 0
2019-12-10 17:59:50 GMT 41.268002 -5.627996 36,000 55 458 0
2019-12-10 17:59:44 GMT 41.265301 -5.633302 36,000 55 458 0
2019-12-10 17:59:39 GMT 41.258743 -5.646057 36,000 55 458 0
2019-12-10 17:59:36 GMT 41.254734 -5.653839 36,000 55 458 0
2019-12-10 17:59:32 GMT 41.251011 -5.661018 36,000 55 458 0
2019-12-10 17:59:28 GMT 41.237740 -5.686861 36,000 55 458 0
2019-12-10 17:59:21 GMT 41.237740 -5.686861 36,000 55 458 0
2019-12-10 17:59:18 GMT 41.233131 -5.695787 36,000 55 458 0
2019-12-10 17:59:14 GMT 41.228432 -5.704963 36,000 55 458 0
2019-12-10 17:59:07 GMT 41.220200 -5.720947 36,000 55 458 0
2019-12-10 17:59:03 GMT 41.216469 -5.728247 36,000 55 458 0
2019-12-10 17:58:57 GMT 41.207245 -5.746155 36,000 55 459 0
2019-12-10 17:58:53 GMT 41.204224 -5.752075 36,000 55 459 -64
2019-12-10 17:58:45 GMT 41.194492 -5.770881 36,000 55 459 -64
2019-12-10 17:58:42 GMT 41.191040 -5.777649 36,000 55 459 -64
2019-12-10 17:58:37 GMT 41.184082 -5.791077 36,000 55 459 64
2019-12-10 17:58:33 GMT 41.179924 -5.799221 36,000 55 459 64
2019-12-10 17:58:26 GMT 41.171963 -5.814639 36,000 55 459 0
2019-12-10 17:58:23 GMT 41.167076 -5.824127 36,000 55 459 0
2019-12-10 17:58:19 GMT 41.162979 -5.832117 36,000 55 459 0
2019-12-10 17:58:16 GMT 41.160137 -5.837610 36,000 55 459 0
2019-12-10 17:58:13 GMT 41.155064 -5.847473 36,000 55 459 0
2019-12-10 17:58:06 GMT 41.146687 -5.863641 36,000 55 459 0
2019-12-10 17:58:02 GMT 41.142262 -5.872255 36,000 55 459 0
2019-12-10 17:57:59 GMT 41.139313 -5.877869 36,000 55 459 0
2019-12-10 17:57:56 GMT 41.135651 -5.884989 36,000 55 459 0
2019-12-10 17:57:53 GMT 41.130253 -5.895476 36,000 55 459 -64
2019-12-10 17:57:49 GMT 41.127686 -5.900452 36,000 55 459 -64
2019-12-10 17:57:46 GMT 41.123596 -5.908335 36,000 55 459 0
2019-12-10 17:57:43 GMT 41.119949 -5.915344 36,000 55 459 0
2019-12-10 17:57:40 GMT 41.114983 -5.924939 36,000 55 458 0
2019-12-10 17:57:36 GMT 41.111305 -5.931993 36,000 55 458 0
2019-12-10 17:57:32 GMT 41.107021 -5.940295 36,000 55 458 0
2019-12-10 17:57:29 GMT 41.102879 -5.948285 36,000 55 458 0
2019-12-10 17:57:26 GMT 41.099247 -5.955276 36,000 55 458 0
2019-12-10 17:57:22 GMT 41.095200 -5.963079 36,000 55 458 0
2019-12-10 17:57:19 GMT 41.090683 -5.971881 36,000 55 459 0
2019-12-10 17:57:15 GMT 41.085003 -5.982805 36,000 55 459 0
2019-12-10 17:57:11 GMT 41.081497 -5.989624 36,000 55 459 0
2019-12-10 17:57:08 GMT 41.078522 -5.995300 36,000 55 459 0
2019-12-10 17:57:03 GMT 41.070877 -6.010071 36,000 55 458 0
2019-12-10 17:56:59 GMT 41.065979 -6.019531 36,000 55 459 0
2019-12-10 17:56:55 GMT 41.059067 -6.032776 36,000 55 459 0
2019-12-10 17:56:45 GMT 41.050041 -6.050158 36,000 55 459 0
2019-12-10 17:56:42 GMT 41.046844 -6.056396 36,000 55 459 0
2019-12-10 17:56:38 GMT 41.041523 -6.066575 36,000 55 459 0
2019-12-10 17:56:35 GMT 41.037186 -6.074951 36,000 55 458 0
2019-12-10 17:56:31 GMT 41.034077 -6.080933 36,000 55 458 0
2019-12-10 17:56:27 GMT 41.029186 -6.090358 36,000 55 459 0
2019-12-10 17:56:24 GMT 41.024826 -6.098694 36,000 55 458 0
2019-12-10 17:56:20 GMT 41.017223 -6.113330 36,000 55 458 0
2019-12-10 17:56:17 GMT 41.017223 -6.113330 36,000 55 458 0
2019-12-10 17:56:14 GMT 41.009628 -6.127869 36,000 55 458 0
2019-12-10 17:56:08 GMT 41.004822 -6.137146 36,000 55 458 0
2019-12-10 17:56:02 GMT 40.998974 -6.148411 36,000 55 458 0
2019-12-10 17:55:57 GMT 40.992874 -6.160034 36,000 55 458 0
2019-12-10 17:55:53 GMT 40.987522 -6.170321 36,000 55 458 0
2019-12-10 17:55:46 GMT 40.979843 -6.185053 36,000 55 458 0
2019-12-10 17:55:41 GMT 40.972870 -6.198486 36,000 55 458 -64
2019-12-10 17:55:36 GMT 40.967514 -6.208740 36,000 55 458 0
2019-12-10 17:55:31 GMT 40.961243 -6.220764 36,000 55 458 0
2019-12-10 17:55:27 GMT 40.955261 -6.232182 36,000 55 458 0
2019-12-10 17:55:23 GMT 40.951355 -6.239746 36,000 55 458 -64
2019-12-10 17:55:20 GMT 40.948792 -6.244666 36,000 55 458 -64
2019-12-10 17:55:13 GMT 40.938877 -6.263580 36,000 55 458 896
2019-12-10 17:55:06 GMT 40.931290 -6.278125 35,950 55 457 960
2019-12-10 17:55:01 GMT 40.924026 -6.291992 35,875 55 457 1024
2019-12-10 17:54:53 GMT 40.915508 -6.308337 35,725 55 458 896
2019-12-10 17:54:50 GMT 40.912296 -6.314392 35,725 55 458 896
2019-12-10 17:54:46 GMT 40.906448 -6.325562 35,625 55 458 896
2019-12-10 17:54:41 GMT 40.901550 -6.334900 35,575 55 458 960
2019-12-10 17:54:35 GMT 40.893581 -6.350035 35,450 55 459 1216
2019-12-10 17:54:31 GMT 40.888042 -6.360585 35,375 55 459 1344
2019-12-10 17:54:25 GMT 40.878265 -6.379249 35,150 55 460 1408
2019-12-10 17:54:22 GMT 40.878265 -6.379249 35,150 55 460 1408
2019-12-10 17:54:19 GMT 40.874168 -6.387052 35,150 55 460 1408
2019-12-10 17:54:14 GMT 40.869141 -6.396606 34,975 55 460 1408
2019-12-10 17:54:10 GMT 40.864243 -6.405823 34,875 55 462 1472
2019-12-10 17:54:04 GMT 40.856667 -6.420260 34,725 55 462 1536
2019-12-10 17:54:00 GMT 40.852158 -6.428833 34,625 55 462 1472
2019-12-10 17:53:54 GMT 40.843781 -6.444763 34,475 55 464 1472
2019-12-10 17:53:50 GMT 40.836227 -6.459045 34,300 55 464 1344
2019-12-10 17:53:42 GMT 40.826019 -6.478394 34,125 55 464 1088
2019-12-10 17:53:34 GMT 40.819515 -6.490735 34,075 55 464 512
2019-12-10 17:53:29 GMT 40.814117 -6.500977 34,050 55 457 128
2019-12-10 17:53:24 GMT 40.806992 -6.514456 34,050 55 459 0
2019-12-10 17:53:21 GMT 40.803364 -6.521260 34,050 55 456 128
2019-12-10 17:53:18 GMT 40.800934 -6.525879 34,000 55 454 320
2019-12-10 17:53:14 GMT 40.794144 -6.538800 34,025 55 454 192
2019-12-10 17:53:09 GMT 40.789581 -6.547485 34,000 53 452 0
2019-12-10 17:53:03 GMT 40.782120 -6.561340 34,000 50 448 0
2019-12-10 17:52:58 GMT 40.776535 -6.570984 34,000 52 450 0
2019-12-10 17:52:53 GMT 40.769257 -6.582886 34,000 49 448 0
2019-12-10 17:52:48 GMT 40.761017 -6.595337 34,000 47 447 0
2019-12-10 17:52:41 GMT 40.751862 -6.608032 34,000 45 446 0
2019-12-10 17:52:38 GMT 40.736801 -6.628052 34,000 45 446 0
2019-12-10 17:52:31 GMT 40.736801 -6.628052 34,000 45 446 0
2019-12-10 17:52:28 GMT 40.733826 -6.632019 34,000 45 446 0
2019-12-10 17:52:20 GMT 40.722107 -6.647522 34,000 45 446 0
2019-12-10 17:52:17 GMT 40.718170 -6.652783 34,000 45 446 0
2019-12-10 17:52:14 GMT 40.713562 -6.658901 34,000 45 446 0
2019-12-10 17:52:10 GMT 40.707649 -6.666766 34,000 45 446 0
2019-12-10 17:52:07 GMT 40.703018 -6.672913 34,000 45 446 0
2019-12-10 17:52:02 GMT 40.695419 -6.683044 34,000 45 446 0
2019-12-10 17:51:57 GMT 40.683472 -6.698914 34,000 45 446 0
2019-12-10 17:51:54 GMT 40.680653 -6.702659 34,000 45 446 0
2019-12-10 17:51:47 GMT 40.674042 -6.711426 34,000 45 446 0
2019-12-10 17:51:42 GMT 40.665253 -6.723145 34,000 45 446 0
2019-12-10 17:51:37 GMT 40.659283 -6.730999 34,000 45 446 0
2019-12-10 17:51:34 GMT 40.654587 -6.737183 34,000 45 446 0
2019-12-10 17:51:29 GMT 40.648178 -6.745728 34,000 45 446 0
2019-12-10 17:51:26 GMT 40.644527 -6.750537 34,000 45 446 0
2019-12-10 17:51:23 GMT 40.637310 -6.760025 34,000 45 446 0
2019-12-10 17:51:20 GMT 40.629776 -6.769958 34,000 45 446 0
2019-12-10 17:51:17 GMT 40.629776 -6.769958 34,000 45 446 0
2019-12-10 17:51:09 GMT 40.618549 -6.784869 34,000 45 447 -64
2019-12-10 17:51:06 GMT 40.614670 -6.789917 34,000 45 447 0
2019-12-10 17:51:03 GMT 40.609314 -6.796997 34,000 45 447 0
2019-12-10 17:50:57 GMT 40.595032 -6.815735 34,000 45 447 0
2019-12-10 17:50:53 GMT 40.595032 -6.815735 34,000 45 447 0
2019-12-10 17:50:49 GMT 40.588989 -6.823730 34,000 45 447 0
2019-12-10 17:50:46 GMT 40.584549 -6.829529 34,000 45 447 0
2019-12-10 17:50:43 GMT 40.580933 -6.834351 34,000 45 447 0
2019-12-10 17:50:39 GMT 40.575394 -6.841614 34,000 45 447 0
2019-12-10 17:50:36 GMT 40.569717 -6.849060 34,000 45 447 0
2019-12-10 17:50:32 GMT 40.563992 -6.856655 34,000 45 448 0
2019-12-10 17:50:28 GMT 40.558823 -6.863459 34,000 45 448 0
2019-12-10 17:50:25 GMT 40.555206 -6.868225 34,000 45 449 0
2019-12-10 17:50:22 GMT 40.550304 -6.874632 34,000 45 449 0
2019-12-10 17:50:19 GMT 40.546417 -6.879700 34,000 45 449 -64
2019-12-10 17:50:16 GMT 40.540157 -6.887991 34,000 45 448 0
2019-12-10 17:50:13 GMT 40.536060 -6.893359 34,000 45 448 0
2019-12-10 17:50:07 GMT 40.521149 -6.913086 34,000 45 448 0
2019-12-10 17:50:03 GMT 40.521149 -6.913086 34,000 45 448 0
2019-12-10 17:49:58 GMT 40.514832 -6.921387 34,000 45 448 0
2019-12-10 17:49:55 GMT 40.510300 -6.927307 34,000 45 449 0
2019-12-10 17:49:52 GMT 40.506088 -6.932922 34,000 45 449 0
2019-12-10 17:49:48 GMT 40.498585 -6.942735 34,000 45 449 0
2019-12-10 17:49:45 GMT 40.494644 -6.947937 34,000 45 448 0
2019-12-10 17:49:42 GMT 40.491604 -6.951911 34,000 45 449 0
2019-12-10 17:49:37 GMT 40.484386 -6.961399 34,000 45 449 0
2019-12-10 17:49:32 GMT 40.477203 -6.970886 34,000 45 449 0
2019-12-10 17:49:26 GMT 40.462135 -6.990613 34,000 45 449 0
2019-12-10 17:49:22 GMT 40.462135 -6.990613 34,000 45 449 0
2019-12-10 17:49:17 GMT 40.455231 -6.999756 34,000 45 449 0
2019-12-10 17:49:14 GMT 40.446632 -7.011025 34,000 45 448 0
2019-12-10 17:49:07 GMT 40.440811 -7.018677 34,000 45 448 0
2019-12-10 17:49:04 GMT 40.436298 -7.024571 34,000 45 449 0
2019-12-10 17:49:01 GMT 40.431198 -7.031311 34,000 45 448 0
2019-12-10 17:48:57 GMT 40.425430 -7.038879 34,000 45 449 0
2019-12-10 17:48:52 GMT 40.416550 -7.050537 34,000 45 449 0
2019-12-10 17:48:45 GMT 40.406506 -7.063710 34,000 45 448 0
2019-12-10 17:48:41 GMT 40.401615 -7.070077 34,000 45 448 -64
2019-12-10 17:48:37 GMT 40.396317 -7.077026 34,000 44 449 0
2019-12-10 17:48:34 GMT 40.391968 -7.082703 34,000 44 449 0
2019-12-10 17:48:30 GMT 40.386116 -7.090302 34,000 44 449 0
2019-12-10 17:48:26 GMT 40.378990 -7.099665 34,000 44 449 0
2019-12-10 17:48:23 GMT 40.374985 -7.104919 34,000 45 449 0
2019-12-10 17:48:17 GMT 40.365189 -7.117676 34,000 44 449 0
2019-12-10 17:48:14 GMT 40.362167 -7.121643 34,000 44 449 0
2019-12-10 17:48:11 GMT 40.357086 -7.128235 34,000 44 449 0
2019-12-10 17:48:04 GMT 40.347794 -7.140381 34,000 44 449 0
2019-12-10 17:48:01 GMT 40.341934 -7.148010 34,000 44 449 0
2019-12-10 17:47:55 GMT 40.334255 -7.158030 34,000 45 449 0
2019-12-10 17:47:52 GMT 40.329758 -7.163940 34,000 45 449 0
2019-12-10 17:47:49 GMT 40.324677 -7.170532 34,000 45 449 0
2019-12-10 17:47:45 GMT 40.319824 -7.176819 34,000 45 449 0
2019-12-10 17:47:42 GMT 40.314472 -7.183873 34,000 45 449 0
2019-12-10 17:47:36 GMT 40.304581 -7.196777 34,000 45 449 0
2019-12-10 17:47:33 GMT 40.302414 -7.199603 34,000 45 449 0
2019-12-10 17:47:30 GMT 40.296597 -7.207156 34,000 45 449 0
2019-12-10 17:47:25 GMT 40.291008 -7.214460 34,000 44 449 0
2019-12-10 17:47:22 GMT 40.286224 -7.220703 34,000 44 449 0
2019-12-10 17:47:19 GMT 40.281738 -7.226501 34,000 44 449 0
2019-12-10 17:47:15 GMT 40.274994 -7.235309 34,000 44 449 0
2019-12-10 17:47:12 GMT 40.271393 -7.239990 34,000 44 449 0
2019-12-10 17:47:09 GMT 40.266850 -7.245858 34,000 44 449 0
2019-12-10 17:47:06 GMT 40.261681 -7.252600 34,000 44 449 0
2019-12-10 17:47:02 GMT 40.256699 -7.259094 34,000 44 449 0
2019-12-10 17:46:58 GMT 40.248692 -7.269454 34,000 44 449 0
2019-12-10 17:46:53 GMT 40.242783 -7.277161 34,000 44 449 0
2019-12-10 17:46:50 GMT 40.238869 -7.282188 34,000 44 449 0
2019-12-10 17:46:47 GMT 40.226898 -7.297791 34,000 44 449 0
2019-12-10 17:46:43 GMT 40.226898 -7.297791 34,000 44 449 0
2019-12-10 17:46:39 GMT 40.222458 -7.303589 34,000 44 449 0
2019-12-10 17:46:35 GMT 40.216736 -7.310974 34,000 44 449 0
2019-12-10 17:46:32 GMT 40.212334 -7.316707 34,000 44 449 0
2019-12-10 17:46:29 GMT 40.207539 -7.322887 34,000 44 449 0
2019-12-10 17:46:23 GMT 40.199673 -7.333062 34,000 44 449 0
2019-12-10 17:46:19 GMT 40.193069 -7.341675 34,000 44 449 0
2019-12-10 17:46:12 GMT 40.182495 -7.355347 34,000 44 449 0
2019-12-10 17:46:09 GMT 40.177002 -7.362463 34,000 44 449 0
2019-12-10 17:46:05 GMT 40.171967 -7.368958 34,000 44 449 0
2019-12-10 17:46:01 GMT 40.167206 -7.375183 34,000 44 449 0
2019-12-10 17:45:58 GMT 40.161758 -7.382202 34,000 44 449 0
2019-12-10 17:45:54 GMT 40.156540 -7.388977 34,000 44 450 0
2019-12-10 17:45:51 GMT 40.152328 -7.394409 34,000 44 450 0
2019-12-10 17:45:48 GMT 40.146469 -7.401978 34,000 44 450 0
2019-12-10 17:45:44 GMT 40.141479 -7.408447 34,000 44 450 0
2019-12-10 17:45:41 GMT 40.136360 -7.415085 34,000 44 450 0
2019-12-10 17:45:37 GMT 40.131752 -7.421015 34,000 44 450 0
2019-12-10 17:45:34 GMT 40.121246 -7.434570 34,000 44 450 0
2019-12-10 17:45:30 GMT 40.121246 -7.434570 34,000 44 450 0
2019-12-10 17:45:27 GMT 40.117416 -7.439492 34,000 44 450 0
2019-12-10 17:45:21 GMT 40.107285 -7.452576 34,000 44 451 0
2019-12-10 17:45:17 GMT 40.101746 -7.459717 34,000 44 451 0
2019-12-10 17:45:12 GMT 40.088970 -7.476196 34,000 44 452 -64
2019-12-10 17:45:09 GMT 40.086227 -7.479736 34,000 44 453 0
2019-12-10 17:45:03 GMT 40.080734 -7.486816 34,000 44 454 0
2019-12-10 17:45:00 GMT 40.076962 -7.491739 34,000 44 454 0
2019-12-10 17:44:56 GMT 40.070305 -7.500291 34,000 44 454 0
2019-12-10 17:44:51 GMT 40.062469 -7.510376 34,000 44 455 0
2019-12-10 17:44:47 GMT 40.055511 -7.519409 34,000 44 455 0
2019-12-10 17:44:42 GMT 40.049774 -7.526821 34,000 44 455 0
2019-12-10 17:44:39 GMT 40.040932 -7.538182 34,000 44 456 0
2019-12-10 17:44:30 GMT 40.025333 -7.558344 34,000 44 456 -64
2019-12-10 17:44:26 GMT 40.025333 -7.558344 34,000 44 456 -64
2019-12-10 17:44:21 GMT 40.017422 -7.568519 34,000 44 456 256
2019-12-10 17:44:18 GMT 40.009323 -7.578918 33,975 44 456 832
2019-12-10 17:44:12 GMT 40.005020 -7.584534 33,875 44 456 960
2019-12-10 17:44:09 GMT 39.994583 -7.597961 33,850 44 456 960
2019-12-10 17:44:06 GMT 39.994583 -7.597961 33,800 44 456 896
2019-12-10 17:44:02 GMT 39.989777 -7.604126 33,775 44 456 896
2019-12-10 17:43:58 GMT 39.982880 -7.613026 33,700 44 456 960
2019-12-10 17:43:51 GMT 39.974033 -7.624449 33,600 44 456 896
2019-12-10 17:43:48 GMT 39.968216 -7.631878 33,575 44 456 896
2019-12-10 17:43:44 GMT 39.963272 -7.638245 33,425 44 456 1024
2019-12-10 17:43:41 GMT 39.957779 -7.645325 33,425 44 456 1024
2019-12-10 17:43:38 GMT 39.952435 -7.652165 33,375 44 456 960
2019-12-10 17:43:35 GMT 39.948616 -7.657034 33,325 44 456 960
2019-12-10 17:43:31 GMT 39.943867 -7.663151 33,200 44 456 896
2019-12-10 17:43:28 GMT 39.937820 -7.670837 33,225 44 456 896
2019-12-10 17:43:25 GMT 39.932137 -7.678132 33,175 44 456 896
2019-12-10 17:43:20 GMT 39.926041 -7.685998 33,100 44 456 960
2019-12-10 17:43:17 GMT 39.917038 -7.697475 32,975 44 454 1344
2019-12-10 17:43:14 GMT 39.917038 -7.697475 33,000 44 454 1280
2019-12-10 17:43:11 GMT 39.912964 -7.702670 32,925 44 454 1536
2019-12-10 17:43:07 GMT 39.906765 -7.710571 32,875 44 456 1664
2019-12-10 17:43:04 GMT 39.901749 -7.717000 32,750 44 456 1728
2019-12-10 17:43:00 GMT 39.896294 -7.723999 32,000 44 456 1728
2019-12-10 17:42:57 GMT 39.891544 -7.730103 32,525 44 457 1792
2019-12-10 17:42:54 GMT 39.886841 -7.736084 32,425 44 457 1792
2019-12-10 17:42:51 GMT 39.882839 -7.741150 32,350 44 457 1856
2019-12-10 17:42:47 GMT 39.876835 -7.748901 32,200 44 458 1856
2019-12-10 17:42:44 GMT 39.871014 -7.756287 32,100 44 458 1856
2019-12-10 17:42:39 GMT 39.865448 -7.763393 32,025 44 459 1920
2019-12-10 17:42:36 GMT 39.860771 -7.769348 31,900 44 460 1984
2019-12-10 17:42:33 GMT 39.851761 -7.780888 31,700 44 461 1856
2019-12-10 17:42:27 GMT 39.845364 -7.789063 31,575 44 462 1856
2019-12-10 17:42:23 GMT 39.840088 -7.795875 31,475 44 462 1792
2019-12-10 17:42:20 GMT 39.836334 -7.800651 31,375 44 463 1856
2019-12-10 17:42:16 GMT 39.829678 -7.809143 31,250 44 463 1792
2019-12-10 17:42:12 GMT 39.824413 -7.815857 31,175 44 463 1728
2019-12-10 17:42:09 GMT 39.819061 -7.822754 30,275 44 464 1664
2019-12-10 17:42:06 GMT 39.814499 -7.828491 30,875 44 464 1664
2019-12-10 17:42:03 GMT 39.808399 -7.836304 30,850 44 464 1664
2019-12-10 17:41:56 GMT 39.796719 -7.851196 30,650 44 464 1664
2019-12-10 17:41:53 GMT 39.794312 -7.854269 30,575 44 464 1664
2019-12-10 17:41:50 GMT 39.789501 -7.860413 30,500 44 464 1664
2019-12-10 17:41:46 GMT 39.783508 -7.868062 30,425 44 464 1664
2019-12-10 17:41:43 GMT 39.778336 -7.874690 30,375 44 464 1664
2019-12-10 17:41:40 GMT 39.774418 -7.879700 30,100 44 463 1728
2019-12-10 17:41:37 GMT 39.769455 -7.885974 30,150 44 463 1728
2019-12-10 17:41:34 GMT 39.764782 -7.891907 30,075 44 463 1728
2019-12-10 17:41:31 GMT 39.761150 -7.896545 29,950 44 463 1664
2019-12-10 17:41:27 GMT 39.753479 -7.906275 29,850 44 463 1600
2019-12-10 17:41:24 GMT 39.745743 -7.916127 29,775 44 463 1664
2019-12-10 17:41:21 GMT 39.738922 -7.924785 29,675 44 463 1728
2019-12-10 17:41:17 GMT 39.738922 -7.924785 29,550 44 463 1664
2019-12-10 17:41:14 GMT 39.735855 -7.928726 29,525 44 463 1600
2019-12-10 17:41:10 GMT 39.727589 -7.939209 29,400 44 463 1600
2019-12-10 17:41:04 GMT 39.719627 -7.949280 29,300 44 463 1664
2019-12-10 17:41:01 GMT 39.714386 -7.955953 29,150 44 462 1728
2019-12-10 17:40:54 GMT 39.703983 -7.969177 28,975 44 462 1536
2019-12-10 17:40:49 GMT 39.696396 -7.978761 28,850 44 461 1152
2019-12-10 17:40:46 GMT 39.684311 -7.994106 28,650 44 458 1152
2019-12-10 17:40:42 GMT 39.684311 -7.994106 28,700 44 458 1152
2019-12-10 17:40:39 GMT 39.680878 -7.998465 28,650 44 458 1152
2019-12-10 17:40:36 GMT 39.675121 -8.005737 28,575 44 456 1088
2019-12-10 17:40:33 GMT 39.670074 -8.012078 28,525 44 456 1088
2019-12-10 17:40:30 GMT 39.667374 -8.015541 28,500 44 454 1088
2019-12-10 17:40:26 GMT 39.661201 -8.023315 28,400 44 453 1216
2019-12-10 17:40:23 GMT 39.657486 -8.028020 28,400 44 453 1216
2019-12-10 17:40:20 GMT 39.652725 -8.034051 28,325 44 453 1280
2019-12-10 17:40:16 GMT 39.646729 -8.041634 28,200 44 450 960
2019-12-10 17:40:13 GMT 39.635227 -8.056152 28,125 44 449 1216
2019-12-10 17:40:09 GMT 39.635227 -8.056152 28,075 44 449 1280
2019-12-10 17:40:05 GMT 39.629105 -8.063905 28,000 44 448 1344
2019-12-10 17:40:01 GMT 39.623016 -8.071548 27,900 44 446 1344
2019-12-10 17:39:58 GMT 39.620361 -8.074951 27,850 44 446 1344
2019-12-10 17:39:53 GMT 39.612442 -8.084922 27,725 44 445 1536
2019-12-10 17:39:50 GMT 39.607903 -8.090637 27,625 44 445 1536
2019-12-10 17:39:47 GMT 39.604176 -8.095337 27,475 44 444 1408
2019-12-10 17:39:44 GMT 39.599442 -8.101342 27,525 44 444 1472
2019-12-10 17:39:41 GMT 39.595459 -8.106298 27,400 44 443 1472
2019-12-10 17:39:38 GMT 39.590164 -8.113037 27,350 44 443 1536
2019-12-10 17:39:35 GMT 39.585617 -8.118777 27,225 44 442 1728
2019-12-10 17:39:32 GMT 39.582367 -8.122897 27,200 44 442 1792
2019-12-10 17:39:29 GMT 39.570511 -8.137884 27,075 44 441 1600
2019-12-10 17:39:25 GMT 39.570511 -8.137884 26,950 44 441 1600
2019-12-10 17:39:22 GMT 39.567307 -8.141944 26,925 44 441 1728
2019-12-10 17:39:18 GMT 39.561535 -8.149231 26,700 44 440 1856
2019-12-10 17:39:15 GMT 39.554810 -8.157767 26,675 44 440 1856
2019-12-10 17:39:11 GMT 39.551834 -8.161528 26,600 44 440 1856
2019-12-10 17:39:08 GMT 39.545429 -8.169617 26,475 44 439 1856
2019-12-10 17:39:05 GMT 39.536491 -8.180908 26,325 44 439 1920
2019-12-10 17:39:01 GMT 39.530960 -8.187919 26,200 44 439 1984
2019-12-10 17:38:57 GMT 39.530960 -8.187919 26,150 44 439 1984
2019-12-10 17:38:54 GMT 39.525784 -8.194458 26,075 44 439 1920
2019-12-10 17:38:51 GMT 39.521759 -8.199562 26,000 44 439 1920
2019-12-10 17:38:47 GMT 39.515762 -8.207145 25,800 44 438 2048
2019-12-10 17:38:44 GMT 39.510979 -8.213135 25,700 44 438 1984
2019-12-10 17:38:41 GMT 39.507339 -8.217773 25,625 44 438 1984
2019-12-10 17:38:37 GMT 39.501480 -8.225159 25,325 44 437 1984
2019-12-10 17:38:34 GMT 39.496780 -8.231140 25,375 44 437 1984
2019-12-10 17:38:30 GMT 39.492496 -8.236572 25,275 44 437 1920
2019-12-10 17:38:27 GMT 39.486603 -8.243985 25,200 44 437 1920
2019-12-10 17:38:24 GMT 39.482208 -8.249538 25,050 44 436 1920
2019-12-10 17:38:20 GMT 39.477741 -8.255188 25,000 44 436 1984
2019-12-10 17:38:17 GMT 39.472092 -8.262316 24,825 44 435 1920
2019-12-10 17:38:14 GMT 39.467686 -8.267883 24,725 44 434 1792
2019-12-10 17:38:10 GMT 39.463032 -8.273743 24,675 44 434 1792
2019-12-10 17:38:07 GMT 39.457539 -8.280640 24,500 44 433 2048
2019-12-10 17:38:04 GMT 39.452957 -8.286438 24,375 44 433 2240
2019-12-10 17:38:00 GMT 39.448608 -8.291871 24,275 44 433 2304
2019-12-10 17:37:56 GMT 39.435471 -8.308411 23,975 44 433 2240
2019-12-10 17:37:52 GMT 39.435471 -8.308411 23,925 44 433 2240
2019-12-10 17:37:49 GMT 39.432632 -8.311951 23,825 44 433 2304
2019-12-10 17:37:46 GMT 39.427643 -8.318203 23,825 44 433 2304
2019-12-10 17:37:43 GMT 39.423832 -8.322937 23,625 44 433 2176
2019-12-10 17:37:39 GMT 39.417984 -8.330324 23,425 44 432 2176
2019-12-10 17:37:35 GMT 39.413040 -8.336474 23,200 43 432 2048
2019-12-10 17:37:31 GMT 39.406174 -8.345072 23,200 44 431 1920
2019-12-10 17:37:26 GMT 39.398438 -8.354625 23,050 43 429 1792
2019-12-10 17:37:21 GMT 39.391712 -8.362976 22,900 43 428 1856
2019-12-10 17:37:15 GMT 39.383286 -8.373433 22,700 43 427 1984
2019-12-10 17:37:11 GMT 39.377151 -8.381016 22,575 43 425 1984
2019-12-10 17:37:06 GMT 39.365936 -8.394868 22,375 43 425 2048
2019-12-10 17:37:03 GMT 39.365936 -8.394868 21,550 43 423 2048
2019-12-10 17:37:00 GMT 39.362274 -8.399466 22,050 43 422 1792
2019-12-10 17:36:56 GMT 39.352020 -8.412064 22,050 43 422 1792
2019-12-10 17:36:50 GMT 39.347855 -8.417199 21,900 43 420 1984
2019-12-10 17:36:46 GMT 39.341297 -8.425354 21,775 43 419 1984
2019-12-10 17:36:43 GMT 39.337246 -8.430298 21,550 44 417 1920
2019-12-10 17:36:40 GMT 39.333801 -8.434631 21,550 44 417 1920
2019-12-10 17:36:37 GMT 39.322025 -8.449341 21,375 44 415 2048
2019-12-10 17:36:33 GMT 39.322025 -8.449341 21,275 44 415 2112
2019-12-10 17:36:30 GMT 39.319324 -8.452759 21,200 44 415 2112
2019-12-10 17:36:26 GMT 39.315460 -8.457642 21,050 44 414 2112
2019-12-10 17:36:22 GMT 39.309406 -8.465393 20,725 45 410 2112
2019-12-10 17:36:19 GMT 39.305824 -8.470032 20,875 45 411 1856
2019-12-10 17:36:16 GMT 39.301163 -8.476012 20,750 45 410 1984
2019-12-10 17:36:12 GMT 39.295898 -8.482759 20,625 45 408 2176
2019-12-10 17:36:09 GMT 39.291550 -8.488371 20,500 45 408 2048
2019-12-10 17:36:05 GMT 39.285919 -8.495596 20,375 44 406 1792
2019-12-10 17:36:01 GMT 39.282166 -8.500433 19,775 45 395 2496
2019-12-10 17:35:58 GMT 39.278076 -8.505676 20,200 45 404 1984
2019-12-10 17:35:55 GMT 39.273926 -8.511001 20,100 45 403 1984
2019-12-10 17:35:52 GMT 39.268982 -8.517330 20,000 45 402 1984
2019-12-10 17:35:49 GMT 39.264267 -8.523480 19,825 45 400 2432
2019-12-10 17:35:44 GMT 39.258316 -8.531182 19,600 45 399 2496
2019-12-10 17:35:41 GMT 39.255314 -8.534973 19,525 45 399 2432
2019-12-10 17:35:38 GMT 39.251171 -8.540344 19,425 45 398 2304
2019-12-10 17:35:35 GMT 39.247074 -8.545654 19,325 45 398 2304
2019-12-10 17:35:32 GMT 39.242558 -8.551453 19,150 45 396 2368
2019-12-10 17:35:28 GMT 39.238037 -8.557215 19,025 45 395 2496
2019-12-10 17:35:25 GMT 39.229568 -8.568142 18,825 45 394 2560
2019-12-10 17:35:22 GMT 39.229568 -8.568142 18,550 45 393 2560
2019-12-10 17:35:17 GMT 39.224449 -8.574768 18,575 45 393 2560
2019-12-10 17:35:13 GMT 39.218948 -8.581755 18,400 45 393 2624
2019-12-10 17:35:10 GMT 39.215046 -8.586853 18,250 44 392 2688
2019-12-10 17:35:07 GMT 39.211716 -8.591129 17,075 45 391 2688
2019-12-10 17:35:03 GMT 39.201637 -8.604065 17,875 45 391 2560
2019-12-10 17:34:57 GMT 39.192932 -8.615234 17,075 45 390 2688
2019-12-10 17:34:53 GMT 39.192932 -8.615234 17,550 45 390 2688
2019-12-10 17:34:50 GMT 39.189770 -8.619324 17,425 45 388 2752
2019-12-10 17:34:47 GMT 39.185486 -8.624817 17,225 45 388 2752
2019-12-10 17:34:43 GMT 39.179482 -8.632568 17,000 45 387 2688
2019-12-10 17:34:39 GMT 39.175663 -8.637390 16,950 45 387 2688
2019-12-10 17:34:36 GMT 39.172211 -8.641822 16,675 44 386 2752
2019-12-10 17:34:33 GMT 39.167564 -8.647827 16,475 44 385 2560
2019-12-10 17:34:30 GMT 39.156281 -8.662242 15,800 44 385 2368
2019-12-10 17:34:26 GMT 39.154449 -8.664630 16,225 44 383 2304
2019-12-10 17:34:20 GMT 39.151733 -8.668091 16,075 44 382 2368
2019-12-10 17:34:16 GMT 39.146667 -8.674542 15,900 44 380 2688
2019-12-10 17:34:13 GMT 39.143078 -8.679138 15,675 44 379 2688
2019-12-10 17:34:10 GMT 39.138374 -8.685120 15,600 44 379 2560
2019-12-10 17:34:06 GMT 39.133575 -8.691260 15,450 44 377 2304
2019-12-10 17:34:03 GMT 39.124317 -8.703064 15,250 44 374 2432
2019-12-10 17:33:56 GMT 39.121288 -8.706970 15,050 44 373 2688
2019-12-10 17:33:53 GMT 39.117844 -8.711365 14,975 44 372 2816
2019-12-10 17:33:50 GMT 39.113205 -8.717293 14,825 44 371 2816
2019-12-10 17:33:45 GMT 39.107975 -8.723938 14,550 44 370 2560
2019-12-10 17:33:42 GMT 39.104370 -8.728578 14,450 44 369 2496
2019-12-10 17:33:39 GMT 39.100296 -8.733765 14,275 44 368 2688
2019-12-10 17:33:34 GMT 39.094475 -8.741211 14,050 44 366 2880
2019-12-10 17:33:29 GMT 39.083584 -8.755127 13,600 44 365 2944
2019-12-10 17:33:23 GMT 39.082325 -8.756775 13,400 44 364 2944
2019-12-10 17:33:20 GMT 39.076996 -8.763567 13,450 44 364 2880
2019-12-10 17:33:15 GMT 39.067337 -8.775867 12,925 44 361 3136
2019-12-10 17:33:11 GMT 39.066078 -8.777466 12,875 44 361 3136
2019-12-10 17:33:02 GMT 39.055984 -8.790436 12,225 44 358 3008
2019-12-10 17:32:58 GMT 39.050766 -8.797123 12,225 45 359 2944
2019-12-10 17:32:55 GMT 39.047413 -8.801392 12,075 44 357 3008
2019-12-10 17:32:51 GMT 39.043533 -8.806318 11,750 44 356 2944
2019-12-10 17:32:48 GMT 39.040009 -8.810856 11,525 44 354 2688
2019-12-10 17:32:44 GMT 39.035030 -8.817200 11,525 44 354 2688
2019-12-10 17:32:41 GMT 39.032001 -8.821045 11,525 44 354 2688
2019-12-10 17:32:38 GMT 39.028000 -8.826172 11,350 44 352 2560
2019-12-10 17:32:33 GMT 39.023205 -8.832275 10,575 44 349 3072
2019-12-10 17:32:30 GMT 39.016113 -8.841307 10,825 44 347 3072
2019-12-10 17:32:21 GMT 39.008469 -8.850980 10,450 44 344 2432
2019-12-10 17:32:18 GMT 39.004074 -8.856533 10,350 44 342 2624
2019-12-10 17:32:13 GMT 38.994278 -8.868952 10,075 44 341 3200
2019-12-10 17:32:09 GMT 38.994278 -8.868952 9,725 44 340 3008
2019-12-10 17:32:05 GMT 38.989967 -8.874329 9,850 44 340 3008
2019-12-10 17:32:01 GMT 38.985764 -8.879700 9,525 44 337 3200
2019-12-10 17:31:58 GMT 38.982983 -8.883179 9,400 44 337 3328
2019-12-10 17:31:55 GMT 38.979118 -8.888062 9,175 44 337 3456
2019-12-10 17:31:52 GMT 38.976288 -8.891641 9,050 44 336 3392
2019-12-10 17:31:48 GMT 38.971390 -8.897851 8,800 44 335 3136
2019-12-10 17:31:45 GMT 38.968597 -8.901434 8,675 44 335 3072
2019-12-10 17:31:40 GMT 38.958984 -8.913614 8,325 44 332 3456
2019-12-10 17:31:37 GMT 38.958984 -8.913614 8,175 44 332 3520
2019-12-10 17:31:33 GMT 38.954086 -8.919824 7,925 44 332 3392
2019-12-10 17:31:30 GMT 38.951935 -8.922570 7,725 44 330 3328
2019-12-10 17:31:27 GMT 38.949142 -8.926093 7,725 44 330 3328
2019-12-10 17:31:24 GMT 38.945976 -8.930176 7,175 44 328 3392
2019-12-10 17:31:20 GMT 38.940903 -8.936602 7,175 44 328 3392
2019-12-10 17:31:17 GMT 38.937641 -8.940735 7,000 44 328 3328
2019-12-10 17:31:14 GMT 38.934677 -8.944483 6,925 44 328 3328
2019-12-10 17:31:11 GMT 38.931839 -8.948125 6,775 44 326 3328
2019-12-10 17:31:07 GMT 38.926575 -8.954813 6,575 44 325 3520
2019-12-10 17:31:04 GMT 38.923828 -8.958336 6,425 44 325 3520
2019-12-10 17:31:01 GMT 38.920837 -8.962158 6,175 44 324 3392
2019-12-10 17:30:58 GMT 38.914085 -8.970764 5,875 45 323 3328
2019-12-10 17:30:55 GMT 38.914085 -8.970764 5,825 45 322 3264
2019-12-10 17:30:51 GMT 38.909988 -8.976013 5,625 45 321 3072
2019-12-10 17:30:48 GMT 38.907028 -8.979831 5,500 45 319 3072
2019-12-10 17:30:45 GMT 38.903595 -8.984189 5,300 44 317 3072
2019-12-10 17:30:42 GMT 38.900024 -8.988727 5,125 44 316 3072
2019-12-10 17:30:38 GMT 38.896408 -8.993265 4,950 44 313 2880
2019-12-10 17:30:35 GMT 38.893433 -8.997027 4,875 44 313 2816
2019-12-10 17:30:30 GMT 38.888901 -9.002930 4,600 47 309 2944
2019-12-10 17:30:27 GMT 38.885513 -9.007774 4,425 48 308 2752
2019-12-10 17:30:24 GMT 38.882172 -9.012730 4,400 50 306 2304
2019-12-10 17:30:20 GMT 38.879745 -9.016671 4,200 51 294 1344
2019-12-10 17:30:17 GMT 38.876175 -9.022403 4,150 51 291 1280
2019-12-10 17:30:13 GMT 38.873886 -9.026164 4,000 51 279 1216
2019-12-10 17:30:10 GMT 38.871002 -9.030821 4,025 51 280 1216
2019-12-10 17:30:07 GMT 38.868187 -9.035400 3,950 51 273 1216
2019-12-10 17:30:03 GMT 38.864925 -9.040588 3,900 51 270 1216
2019-12-10 17:30:00 GMT 38.863159 -9.043457 3,825 51 261 1216
2019-12-10 17:29:57 GMT 38.860703 -9.047420 3,750 51 257 1216
2019-12-10 17:29:53 GMT 38.857498 -9.052615 3,650 51 248 1344
2019-12-10 17:29:50 GMT 38.855713 -9.055600 3,600 51 242 1536
2019-12-10 17:29:47 GMT 38.852783 -9.060317 3,450 52 237 1920
2019-12-10 17:29:44 GMT 38.849030 -9.066527 3,200 52 229 3264
2019-12-10 17:29:41 GMT 38.847610 -9.068796 3,200 52 229 3264
2019-12-10 17:29:35 GMT 38.843979 -9.074829 2,775 52 228 3392
2019-12-10 17:29:27 GMT 38.840721 -9.080261 2,275 53 227 2496
2019-12-10 17:29:24 GMT 38.838951 -9.083252 2,400 54 208 1088
2019-12-10 17:29:18 GMT 38.834885 -9.090231 2,350 53 212 768
2019-12-10 17:29:14 GMT 38.832664 -9.094177 2,275 54 208 1152
2019-12-10 17:29:09 GMT 38.829967 -9.099060 2,175 54 203 1344
2019-12-10 17:29:06 GMT 38.828522 -9.101576 2,125 53 201 1280
2019-12-10 17:29:03 GMT 38.826988 -9.104126 1,950 46 193 896
2019-12-10 17:28:59 GMT 38.821976 -9.110711 1,950 36 181 960
2019-12-10 17:28:56 GMT 38.821976 -9.110711 1,950 36 181 960
2019-12-10 17:28:52 GMT 38.819550 -9.113040 1,900 35 180 960
2019-12-10 17:28:46 GMT 38.814835 -9.116682 1,750 26 169 1792
2019-12-10 17:28:42 GMT 38.812416 -9.118164 1,625 25 168 2304
2019-12-10 17:28:37 GMT 38.808926 -9.120300 1,325 25 167 2944
2019-12-10 17:28:33 GMT 38.806000 -9.122056 1,050 24 170 3520
2019-12-10 17:28:29 GMT 38.800232 -9.125399 850 24 175 2880
2019-12-10 17:28:25 GMT 38.800232 -9.125399 775 24 175 2496
2019-12-10 17:28:22 GMT 38.798401 -9.126474 625 24 174 2048
2019-12-10 17:28:18 GMT 38.795380 -9.128235 525 23 172 1920
2019-12-10 17:28:13 GMT 38.790939 -9.130713 325 23 168 1984
2019-12-10 17:27:47 GMT 38.773872 -9.139954 0 22 115 64
2019-12-10 17:27:40 GMT 38.770893 -9.141525 0 22 92
2019-12-10 17:27:31 GMT 38.768147 -9.143005 0 22 59
2019-12-10 17:27:19 GMT 38.766212 -9.144028 0 25 10
2019-12-10 17:26:46 GMT 38.766106 -9.144088 0 25 4
2019-12-10 17:26:40 GMT 38.766014 -9.144163 0 8 6
2019-12-10 17:26:31 GMT 38.765797 -9.144148 0 300 8
2019-12-10 17:26:23 GMT 38.765625 -9.143745 0 295 13
2019-12-10 17:26:19 GMT 38.765537 -9.143509 0 292 11
2019-12-10 17:26:15 GMT 38.765469 -9.143265 0 292 9
2019-12-10 17:26:09 GMT 38.765385 -9.143028 0 292 5
2019-12-10 17:26:04 GMT 38.765350 -9.142914 0 292 3
2019-12-10 17:26:01 GMT 38.765339 -9.142864 0 292 3
2019-12-10 17:25:54 GMT 38.765316 -9.142804 0 292 0
2019-12-10 17:25:50 GMT 38.765316 -9.142792 0 292 0
2019-12-10 17:25:42 GMT 38.765293 -9.142715 0 292 4
2019-12-10 17:25:33 GMT 38.765236 -9.142536 0 292 5
2019-12-10 17:25:29 GMT 38.765202 -9.142446 0 292 6
2019-12-10 17:25:22 GMT 38.765118 -9.142197 0 292 10
2019-12-10 17:25:19 GMT 38.765060 -9.142014 0 289 11
2019-12-10 17:25:14 GMT 38.764973 -9.141670 0 275 12
2019-12-10 17:25:08 GMT 38.764969 -9.141327 0 255 10
2019-12-10 17:24:58 GMT 38.765121 -9.140834 0 230 9
2019-12-10 17:24:54 GMT 38.765259 -9.140625 0 227 9
2019-12-10 17:24:42 GMT 38.765514 -9.140274 0 320 5
2019-12-10 17:24:31 GMT 38.765728 -9.139819 0 270 7
2019-12-10 17:24:20 GMT 38.765667 -9.139465 0 323 6
2019-12-10 17:24:12 GMT 38.765514 -9.139343 0 343 5
2019-12-10 17:24:02 GMT 38.765270 -9.139252 0 315 5
2019-12-10 17:23:52 GMT 38.765144 -9.139088 0 270 5
2019-12-10 17:23:42 GMT 38.765167 -9.138819 0 255 5
2019-12-10 17:23:31 GMT 38.765213 -9.138535 0 258 5
2019-12-10 17:23:14 GMT 38.765259 -9.138275 0 258 0
2019-12-10 17:22:55 GMT 38.765259 -9.138267 0 258 0
2019-12-10 17:22:09 GMT 38.765259 -9.138260 0 258 0
2019-12-10 17:22:00 GMT 38.765259 -9.138267 0 258 0
2019-12-10 17:21:39 GMT 38.765270 -9.138260 0 258 0
2019-12-10 17:21:29 GMT 38.765270 -9.138267 0 258 0
2019-12-10 17:20:49 GMT 38.765270 -9.138260 0 258 0
2019-12-10 17:20:34 GMT 38.765270 -9.138267 0 258 0
2019-12-10 17:20:24 GMT 38.765270 -9.138260 0 258 0
2019-12-10 17:19:59 GMT 38.765270 -9.138267 0 258 0
2019-12-10 17:19:55 GMT 38.765270 -9.138260 0 258 0
2019-12-10 17:19:44 GMT 38.765270 -9.138267 0 258 0
2019-12-10 17:19:27 GMT 38.765270 -9.138260 0 258 0
2019-12-10 17:19:17 GMT 38.765270 -9.138267 0 258 0
2019-12-10 17:19:07 GMT 38.765259 -9.138306 0 258 0
2019-12-10 17:18:58 GMT 38.765259 -9.138382 0 264 2
2019-12-10 17:18:47 GMT 38.765259 -9.138461 0 264 1
2019-12-10 17:18:34 GMT 38.765202 -9.138519 0 239 2
2019-12-10 17:18:26 GMT 38.765141 -9.138550 0 216 2

Making use of Plane Finder data

You are free to use the raw flight data, aircraft information and images provided in this report for your own purposes provided the data is correctly attributed to Plane Finder. We ask that you please credit Plane Finder and link to planefinder.net in close proximity to the content.

Optionally one of the following logos (no smaller then 150x24px) can be used and must link to planefinder.net

Embedding the Plane Finder map

You are welcome to embed the Plane Finder playback map on your website to offer visitors a more interactive experience. We suggest using the following HTML code:

<iframe src="//planefinder.net/data/report/FR1791-EI-DHY-7700-squawk-2019-12-10/map" width="800" height="600" seamless="seamless"></iframe>

Where our data comes from

Plane Finder has a global network of data feeds and antenna radars that receive data broadcast directly from aircraft. The primary technologies used are ADS-B and MLAT. We also show feeds from the FAA and a FLARM glider feed.

Click here to find out more about the Plane Finder network.

How we collect our data